<?xml version="1.0" encoding="UTF-8" standalone="no" ?>
<gpx xmlns="http://www.topografix.com/GPX/1/1" xmlns:xsi="http://www.w3.org/2001/XMLSchema-instance" xsi:schemaLocation="http://www.topografix.com/GPX/1/1 http://www.topografix.com/GPX/1/1/gpx.xsd" version="1.1" creator="VisuGPX - https://www.visugpx.com">
  <metadata>
    <name>CDS j10</name>
    <desc><![CDATA[Chemin du soleil]]></desc>
  </metadata>
  <trk>
    <name><![CDATA[ACTIVE LOG070816]]></name>
    <trkseg>
      <trkpt lat="44.07984" lon="6.25996">
        <ele>655</ele>
        <time>2011-08-18T05:08:15Z</time>
      </trkpt>
      <trkpt lat="44.07983" lon="6.25996">
        <ele>655</ele>
        <time>2011-08-18T05:08:59Z</time>
      </trkpt>
      <trkpt lat="44.07979" lon="6.25999">
        <ele>656</ele>
        <time>2011-08-18T05:09:03Z</time>
      </trkpt>
      <trkpt lat="44.07978" lon="6.26006">
        <ele>655</ele>
        <time>2011-08-18T05:09:07Z</time>
      </trkpt>
      <trkpt lat="44.07981" lon="6.26016">
        <ele>655</ele>
        <time>2011-08-18T05:09:20Z</time>
      </trkpt>
      <trkpt lat="44.0799" lon="6.26028">
        <ele>655</ele>
        <time>2011-08-18T05:09:35Z</time>
      </trkpt>
      <trkpt lat="44.07989" lon="6.2603">
        <ele>655</ele>
        <time>2011-08-18T05:09:39Z</time>
      </trkpt>
      <trkpt lat="44.07986" lon="6.26044">
        <ele>656</ele>
        <time>2011-08-18T05:09:44Z</time>
      </trkpt>
      <trkpt lat="44.07983" lon="6.26055">
        <ele>656</ele>
        <time>2011-08-18T05:10:03Z</time>
      </trkpt>
      <trkpt lat="44.07983" lon="6.26055">
        <ele>656</ele>
        <time>2011-08-18T05:10:04Z</time>
      </trkpt>
      <trkpt lat="44.07971" lon="6.26096">
        <ele>659</ele>
        <time>2011-08-18T05:10:21Z</time>
      </trkpt>
      <trkpt lat="44.07955" lon="6.26156">
        <ele>662</ele>
        <time>2011-08-18T05:10:40Z</time>
      </trkpt>
      <trkpt lat="44.07953" lon="6.26163">
        <ele>662</ele>
        <time>2011-08-18T05:10:42Z</time>
      </trkpt>
      <trkpt lat="44.0796" lon="6.2616">
        <ele>662</ele>
        <time>2011-08-18T05:10:50Z</time>
      </trkpt>
      <trkpt lat="44.07958" lon="6.26157">
        <ele>662</ele>
        <time>2011-08-18T05:11:03Z</time>
      </trkpt>
      <trkpt lat="44.07958" lon="6.26157">
        <ele>662</ele>
        <time>2011-08-18T05:11:36Z</time>
      </trkpt>
      <trkpt lat="44.07959" lon="6.26178">
        <ele>667</ele>
        <time>2011-08-18T05:11:48Z</time>
      </trkpt>
      <trkpt lat="44.07951" lon="6.2623">
        <ele>668</ele>
        <time>2011-08-18T05:12:03Z</time>
      </trkpt>
      <trkpt lat="44.07938" lon="6.26282">
        <ele>670</ele>
        <time>2011-08-18T05:12:16Z</time>
      </trkpt>
      <trkpt lat="44.07942" lon="6.26337">
        <ele>672</ele>
        <time>2011-08-18T05:12:31Z</time>
      </trkpt>
      <trkpt lat="44.07949" lon="6.26371">
        <ele>676</ele>
        <time>2011-08-18T05:12:44Z</time>
      </trkpt>
      <trkpt lat="44.07947" lon="6.26421">
        <ele>674</ele>
        <time>2011-08-18T05:12:59Z</time>
      </trkpt>
      <trkpt lat="44.07946" lon="6.2645">
        <ele>674</ele>
        <time>2011-08-18T05:13:16Z</time>
      </trkpt>
      <trkpt lat="44.07945" lon="6.26451">
        <ele>674</ele>
        <time>2011-08-18T05:13:43Z</time>
      </trkpt>
      <trkpt lat="44.07938" lon="6.26451">
        <ele>673</ele>
        <time>2011-08-18T05:19:43Z</time>
      </trkpt>
      <trkpt lat="44.0793" lon="6.26449">
        <ele>673</ele>
        <time>2011-08-18T05:19:49Z</time>
      </trkpt>
      <trkpt lat="44.07927" lon="6.2654">
        <ele>670</ele>
        <time>2011-08-18T05:20:10Z</time>
      </trkpt>
      <trkpt lat="44.07924" lon="6.2664">
        <ele>671</ele>
        <time>2011-08-18T05:20:34Z</time>
      </trkpt>
      <trkpt lat="44.07912" lon="6.26687">
        <ele>672</ele>
        <time>2011-08-18T05:20:46Z</time>
      </trkpt>
      <trkpt lat="44.07883" lon="6.26701">
        <ele>676</ele>
        <time>2011-08-18T05:20:56Z</time>
      </trkpt>
      <trkpt lat="44.07864" lon="6.26711">
        <ele>677</ele>
        <time>2011-08-18T05:21:09Z</time>
      </trkpt>
      <trkpt lat="44.07868" lon="6.26708">
        <ele>677</ele>
        <time>2011-08-18T05:21:26Z</time>
      </trkpt>
      <trkpt lat="44.07869" lon="6.26708">
        <ele>677</ele>
        <time>2011-08-18T05:21:36Z</time>
      </trkpt>
      <trkpt lat="44.0787" lon="6.26706">
        <ele>677</ele>
        <time>2011-08-18T05:21:38Z</time>
      </trkpt>
      <trkpt lat="44.07914" lon="6.26721">
        <ele>674</ele>
        <time>2011-08-18T05:21:55Z</time>
      </trkpt>
      <trkpt lat="44.07931" lon="6.26734">
        <ele>676</ele>
        <time>2011-08-18T05:22:03Z</time>
      </trkpt>
      <trkpt lat="44.07931" lon="6.26741">
        <ele>675</ele>
        <time>2011-08-18T05:22:07Z</time>
      </trkpt>
      <trkpt lat="44.07924" lon="6.26751">
        <ele>676</ele>
        <time>2011-08-18T05:22:19Z</time>
      </trkpt>
      <trkpt lat="44.07923" lon="6.26762">
        <ele>679</ele>
        <time>2011-08-18T05:22:32Z</time>
      </trkpt>
      <trkpt lat="44.07914" lon="6.26775">
        <ele>675</ele>
        <time>2011-08-18T05:22:43Z</time>
      </trkpt>
      <trkpt lat="44.07909" lon="6.26782">
        <ele>676</ele>
        <time>2011-08-18T05:22:47Z</time>
      </trkpt>
      <trkpt lat="44.07872" lon="6.26814">
        <ele>676</ele>
        <time>2011-08-18T05:23:01Z</time>
      </trkpt>
      <trkpt lat="44.07862" lon="6.26854">
        <ele>679</ele>
        <time>2011-08-18T05:23:12Z</time>
      </trkpt>
      <trkpt lat="44.07867" lon="6.26906">
        <ele>682</ele>
        <time>2011-08-18T05:23:23Z</time>
      </trkpt>
      <trkpt lat="44.07857" lon="6.26924">
        <ele>689</ele>
        <time>2011-08-18T05:23:27Z</time>
      </trkpt>
      <trkpt lat="44.07791" lon="6.26963">
        <ele>683</ele>
        <time>2011-08-18T05:23:47Z</time>
      </trkpt>
      <trkpt lat="44.07768" lon="6.26976">
        <ele>684</ele>
        <time>2011-08-18T05:23:59Z</time>
      </trkpt>
      <trkpt lat="44.07758" lon="6.26996">
        <ele>687</ele>
        <time>2011-08-18T05:24:10Z</time>
      </trkpt>
      <trkpt lat="44.07747" lon="6.27017">
        <ele>702</ele>
        <time>2011-08-18T05:24:28Z</time>
      </trkpt>
      <trkpt lat="44.07741" lon="6.27027">
        <ele>707</ele>
        <time>2011-08-18T05:24:45Z</time>
      </trkpt>
      <trkpt lat="44.07741" lon="6.27034">
        <ele>709</ele>
        <time>2011-08-18T05:25:00Z</time>
      </trkpt>
      <trkpt lat="44.07746" lon="6.27036">
        <ele>709</ele>
        <time>2011-08-18T05:25:04Z</time>
      </trkpt>
      <trkpt lat="44.07752" lon="6.27041">
        <ele>704</ele>
        <time>2011-08-18T05:25:17Z</time>
      </trkpt>
      <trkpt lat="44.07748" lon="6.27047">
        <ele>711</ele>
        <time>2011-08-18T05:25:25Z</time>
      </trkpt>
      <trkpt lat="44.07746" lon="6.27046">
        <ele>711</ele>
        <time>2011-08-18T05:25:28Z</time>
      </trkpt>
      <trkpt lat="44.0774" lon="6.27043">
        <ele>711</ele>
        <time>2011-08-18T05:25:33Z</time>
      </trkpt>
      <trkpt lat="44.07719" lon="6.27015">
        <ele>710</ele>
        <time>2011-08-18T05:25:49Z</time>
      </trkpt>
      <trkpt lat="44.07714" lon="6.26963">
        <ele>695</ele>
        <time>2011-08-18T05:26:06Z</time>
      </trkpt>
      <trkpt lat="44.07682" lon="6.26925">
        <ele>695</ele>
        <time>2011-08-18T05:26:22Z</time>
      </trkpt>
      <trkpt lat="44.07647" lon="6.26885">
        <ele>691</ele>
        <time>2011-08-18T05:26:41Z</time>
      </trkpt>
      <trkpt lat="44.07616" lon="6.26892">
        <ele>691</ele>
        <time>2011-08-18T05:26:55Z</time>
      </trkpt>
      <trkpt lat="44.07611" lon="6.26899">
        <ele>691</ele>
        <time>2011-08-18T05:26:57Z</time>
      </trkpt>
      <trkpt lat="44.07601" lon="6.26923">
        <ele>698</ele>
        <time>2011-08-18T05:27:01Z</time>
      </trkpt>
      <trkpt lat="44.07583" lon="6.26938">
        <ele>699</ele>
        <time>2011-08-18T05:27:05Z</time>
      </trkpt>
      <trkpt lat="44.07549" lon="6.26992">
        <ele>695</ele>
        <time>2011-08-18T05:27:14Z</time>
      </trkpt>
      <trkpt lat="44.07546" lon="6.27022">
        <ele>698</ele>
        <time>2011-08-18T05:27:17Z</time>
      </trkpt>
      <trkpt lat="44.07533" lon="6.27071">
        <ele>697</ele>
        <time>2011-08-18T05:27:22Z</time>
      </trkpt>
      <trkpt lat="44.07487" lon="6.27093">
        <ele>691</ele>
        <time>2011-08-18T05:27:29Z</time>
      </trkpt>
      <trkpt lat="44.07472" lon="6.27088">
        <ele>693</ele>
        <time>2011-08-18T05:27:31Z</time>
      </trkpt>
      <trkpt lat="44.07416" lon="6.27088">
        <ele>691</ele>
        <time>2011-08-18T05:27:40Z</time>
      </trkpt>
      <trkpt lat="44.07371" lon="6.27115">
        <ele>701</ele>
        <time>2011-08-18T05:27:51Z</time>
      </trkpt>
      <trkpt lat="44.07293" lon="6.27128">
        <ele>701</ele>
        <time>2011-08-18T05:28:09Z</time>
      </trkpt>
      <trkpt lat="44.07252" lon="6.27118">
        <ele>698</ele>
        <time>2011-08-18T05:28:19Z</time>
      </trkpt>
      <trkpt lat="44.07233" lon="6.2714">
        <ele>698</ele>
        <time>2011-08-18T05:28:25Z</time>
      </trkpt>
      <trkpt lat="44.07208" lon="6.27187">
        <ele>714</ele>
        <time>2011-08-18T05:28:35Z</time>
      </trkpt>
      <trkpt lat="44.07148" lon="6.27233">
        <ele>709</ele>
        <time>2011-08-18T05:28:52Z</time>
      </trkpt>
      <trkpt lat="44.07103" lon="6.27237">
        <ele>704</ele>
        <time>2011-08-18T05:29:05Z</time>
      </trkpt>
      <trkpt lat="44.07078" lon="6.27228">
        <ele>702</ele>
        <time>2011-08-18T05:29:12Z</time>
      </trkpt>
      <trkpt lat="44.0707" lon="6.27171">
        <ele>697</ele>
        <time>2011-08-18T05:29:24Z</time>
      </trkpt>
      <trkpt lat="44.07069" lon="6.2714">
        <ele>702</ele>
        <time>2011-08-18T05:29:35Z</time>
      </trkpt>
      <trkpt lat="44.07093" lon="6.27124">
        <ele>699</ele>
        <time>2011-08-18T05:29:48Z</time>
      </trkpt>
      <trkpt lat="44.07117" lon="6.27087">
        <ele>700</ele>
        <time>2011-08-18T05:30:05Z</time>
      </trkpt>
      <trkpt lat="44.07144" lon="6.27036">
        <ele>710</ele>
        <time>2011-08-18T05:30:27Z</time>
      </trkpt>
      <trkpt lat="44.07179" lon="6.26997">
        <ele>717</ele>
        <time>2011-08-18T05:30:49Z</time>
      </trkpt>
      <trkpt lat="44.0721" lon="6.26984">
        <ele>719</ele>
        <time>2011-08-18T05:31:06Z</time>
      </trkpt>
      <trkpt lat="44.07247" lon="6.26968">
        <ele>719</ele>
        <time>2011-08-18T05:31:26Z</time>
      </trkpt>
      <trkpt lat="44.07276" lon="6.26945">
        <ele>718</ele>
        <time>2011-08-18T05:31:45Z</time>
      </trkpt>
      <trkpt lat="44.07278" lon="6.26937">
        <ele>719</ele>
        <time>2011-08-18T05:31:49Z</time>
      </trkpt>
      <trkpt lat="44.07285" lon="6.26911">
        <ele>737</ele>
        <time>2011-08-18T05:32:03Z</time>
      </trkpt>
      <trkpt lat="44.0732" lon="6.26921">
        <ele>721</ele>
        <time>2011-08-18T05:32:25Z</time>
      </trkpt>
      <trkpt lat="44.07332" lon="6.26911">
        <ele>729</ele>
        <time>2011-08-18T05:32:40Z</time>
      </trkpt>
      <trkpt lat="44.07334" lon="6.2691">
        <ele>728</ele>
        <time>2011-08-18T05:33:13Z</time>
      </trkpt>
      <trkpt lat="44.07336" lon="6.2691">
        <ele>728</ele>
        <time>2011-08-18T05:34:30Z</time>
      </trkpt>
      <trkpt lat="44.07339" lon="6.26908">
        <ele>729</ele>
        <time>2011-08-18T05:34:39Z</time>
      </trkpt>
      <trkpt lat="44.07377" lon="6.26885">
        <ele>733</ele>
        <time>2011-08-18T05:35:02Z</time>
      </trkpt>
      <trkpt lat="44.07416" lon="6.2686">
        <ele>736</ele>
        <time>2011-08-18T05:35:25Z</time>
      </trkpt>
      <trkpt lat="44.07448" lon="6.26827">
        <ele>738</ele>
        <time>2011-08-18T05:35:47Z</time>
      </trkpt>
      <trkpt lat="44.07458" lon="6.26789">
        <ele>740</ele>
        <time>2011-08-18T05:36:05Z</time>
      </trkpt>
      <trkpt lat="44.07449" lon="6.26738">
        <ele>761</ele>
        <time>2011-08-18T05:36:27Z</time>
      </trkpt>
      <trkpt lat="44.07442" lon="6.2669">
        <ele>767</ele>
        <time>2011-08-18T05:36:47Z</time>
      </trkpt>
      <trkpt lat="44.07454" lon="6.2669">
        <ele>766</ele>
        <time>2011-08-18T05:36:55Z</time>
      </trkpt>
      <trkpt lat="44.07488" lon="6.26703">
        <ele>762</ele>
        <time>2011-08-18T05:37:16Z</time>
      </trkpt>
      <trkpt lat="44.07516" lon="6.26678">
        <ele>756</ele>
        <time>2011-08-18T05:37:36Z</time>
      </trkpt>
      <trkpt lat="44.07551" lon="6.26663">
        <ele>757</ele>
        <time>2011-08-18T05:38:00Z</time>
      </trkpt>
      <trkpt lat="44.07556" lon="6.26652">
        <ele>755</ele>
        <time>2011-08-18T05:38:06Z</time>
      </trkpt>
      <trkpt lat="44.07554" lon="6.26647">
        <ele>756</ele>
        <time>2011-08-18T05:38:10Z</time>
      </trkpt>
      <trkpt lat="44.07528" lon="6.26657">
        <ele>763</ele>
        <time>2011-08-18T05:38:27Z</time>
      </trkpt>
      <trkpt lat="44.07499" lon="6.26661">
        <ele>775</ele>
        <time>2011-08-18T05:38:46Z</time>
      </trkpt>
      <trkpt lat="44.07487" lon="6.26645">
        <ele>780</ele>
        <time>2011-08-18T05:39:02Z</time>
      </trkpt>
      <trkpt lat="44.07491" lon="6.2664">
        <ele>781</ele>
        <time>2011-08-18T05:39:05Z</time>
      </trkpt>
      <trkpt lat="44.07522" lon="6.26622">
        <ele>765</ele>
        <time>2011-08-18T05:39:27Z</time>
      </trkpt>
      <trkpt lat="44.07525" lon="6.26615">
        <ele>765</ele>
        <time>2011-08-18T05:39:30Z</time>
      </trkpt>
      <trkpt lat="44.07527" lon="6.2656">
        <ele>763</ele>
        <time>2011-08-18T05:39:50Z</time>
      </trkpt>
      <trkpt lat="44.07508" lon="6.26545">
        <ele>764</ele>
        <time>2011-08-18T05:39:56Z</time>
      </trkpt>
      <trkpt lat="44.07485" lon="6.26503">
        <ele>779</ele>
        <time>2011-08-18T05:40:02Z</time>
      </trkpt>
      <trkpt lat="44.0745" lon="6.26453">
        <ele>780</ele>
        <time>2011-08-18T05:40:13Z</time>
      </trkpt>
      <trkpt lat="44.07422" lon="6.26416">
        <ele>784</ele>
        <time>2011-08-18T05:40:32Z</time>
      </trkpt>
      <trkpt lat="44.07393" lon="6.26372">
        <ele>800</ele>
        <time>2011-08-18T05:40:54Z</time>
      </trkpt>
      <trkpt lat="44.07368" lon="6.26327">
        <ele>798</ele>
        <time>2011-08-18T05:41:15Z</time>
      </trkpt>
      <trkpt lat="44.07341" lon="6.26277">
        <ele>797</ele>
        <time>2011-08-18T05:41:38Z</time>
      </trkpt>
      <trkpt lat="44.07318" lon="6.2623">
        <ele>813</ele>
        <time>2011-08-18T05:42:01Z</time>
      </trkpt>
      <trkpt lat="44.07294" lon="6.26192">
        <ele>819</ele>
        <time>2011-08-18T05:42:21Z</time>
      </trkpt>
      <trkpt lat="44.07268" lon="6.26144">
        <ele>821</ele>
        <time>2011-08-18T05:42:43Z</time>
      </trkpt>
      <trkpt lat="44.07246" lon="6.26098">
        <ele>837</ele>
        <time>2011-08-18T05:43:05Z</time>
      </trkpt>
      <trkpt lat="44.07225" lon="6.26044">
        <ele>842</ele>
        <time>2011-08-18T05:43:29Z</time>
      </trkpt>
      <trkpt lat="44.07211" lon="6.25988">
        <ele>844</ele>
        <time>2011-08-18T05:43:53Z</time>
      </trkpt>
      <trkpt lat="44.07195" lon="6.2593">
        <ele>848</ele>
        <time>2011-08-18T05:44:17Z</time>
      </trkpt>
      <trkpt lat="44.0718" lon="6.25882">
        <ele>848</ele>
        <time>2011-08-18T05:44:37Z</time>
      </trkpt>
      <trkpt lat="44.07159" lon="6.25831">
        <ele>849</ele>
        <time>2011-08-18T05:45:00Z</time>
      </trkpt>
      <trkpt lat="44.07131" lon="6.25797">
        <ele>862</ele>
        <time>2011-08-18T05:45:18Z</time>
      </trkpt>
      <trkpt lat="44.07106" lon="6.25742">
        <ele>867</ele>
        <time>2011-08-18T05:45:40Z</time>
      </trkpt>
      <trkpt lat="44.07094" lon="6.25688">
        <ele>866</ele>
        <time>2011-08-18T05:46:00Z</time>
      </trkpt>
      <trkpt lat="44.07081" lon="6.25636">
        <ele>883</ele>
        <time>2011-08-18T05:46:22Z</time>
      </trkpt>
      <trkpt lat="44.07082" lon="6.25635">
        <ele>883</ele>
        <time>2011-08-18T05:46:23Z</time>
      </trkpt>
      <trkpt lat="44.07091" lon="6.25651">
        <ele>870</ele>
        <time>2011-08-18T05:46:31Z</time>
      </trkpt>
      <trkpt lat="44.071" lon="6.25658">
        <ele>870</ele>
        <time>2011-08-18T05:46:35Z</time>
      </trkpt>
      <trkpt lat="44.07109" lon="6.25666">
        <ele>871</ele>
        <time>2011-08-18T05:46:38Z</time>
      </trkpt>
      <trkpt lat="44.07107" lon="6.25693">
        <ele>866</ele>
        <time>2011-08-18T05:46:45Z</time>
      </trkpt>
      <trkpt lat="44.07126" lon="6.25709">
        <ele>864</ele>
        <time>2011-08-18T05:46:56Z</time>
      </trkpt>
      <trkpt lat="44.07152" lon="6.25719">
        <ele>861</ele>
        <time>2011-08-18T05:47:10Z</time>
      </trkpt>
      <trkpt lat="44.07184" lon="6.25742">
        <ele>861</ele>
        <time>2011-08-18T05:47:29Z</time>
      </trkpt>
      <trkpt lat="44.07216" lon="6.25768">
        <ele>858</ele>
        <time>2011-08-18T05:47:48Z</time>
      </trkpt>
      <trkpt lat="44.07223" lon="6.25773">
        <ele>859</ele>
        <time>2011-08-18T05:47:53Z</time>
      </trkpt>
      <trkpt lat="44.07237" lon="6.25776">
        <ele>860</ele>
        <time>2011-08-18T05:48:00Z</time>
      </trkpt>
      <trkpt lat="44.07263" lon="6.25798">
        <ele>875</ele>
        <time>2011-08-18T05:48:17Z</time>
      </trkpt>
      <trkpt lat="44.07277" lon="6.25821">
        <ele>874</ele>
        <time>2011-08-18T05:48:27Z</time>
      </trkpt>
      <trkpt lat="44.07282" lon="6.25824">
        <ele>875</ele>
        <time>2011-08-18T05:48:40Z</time>
      </trkpt>
      <trkpt lat="44.07285" lon="6.25814">
        <ele>878</ele>
        <time>2011-08-18T05:48:56Z</time>
      </trkpt>
      <trkpt lat="44.07285" lon="6.25809">
        <ele>878</ele>
        <time>2011-08-18T05:49:00Z</time>
      </trkpt>
      <trkpt lat="44.07275" lon="6.25794">
        <ele>879</ele>
        <time>2011-08-18T05:49:16Z</time>
      </trkpt>
      <trkpt lat="44.07274" lon="6.25792">
        <ele>879</ele>
        <time>2011-08-18T05:49:18Z</time>
      </trkpt>
      <trkpt lat="44.07267" lon="6.25785">
        <ele>879</ele>
        <time>2011-08-18T05:49:33Z</time>
      </trkpt>
      <trkpt lat="44.07259" lon="6.25765">
        <ele>879</ele>
        <time>2011-08-18T05:49:43Z</time>
      </trkpt>
      <trkpt lat="44.07259" lon="6.25759">
        <ele>879</ele>
        <time>2011-08-18T05:49:45Z</time>
      </trkpt>
      <trkpt lat="44.07248" lon="6.25751">
        <ele>874</ele>
        <time>2011-08-18T05:49:50Z</time>
      </trkpt>
      <trkpt lat="44.07239" lon="6.25745">
        <ele>875</ele>
        <time>2011-08-18T05:49:55Z</time>
      </trkpt>
      <trkpt lat="44.07225" lon="6.25705">
        <ele>877</ele>
        <time>2011-08-18T05:50:13Z</time>
      </trkpt>
      <trkpt lat="44.07217" lon="6.25693">
        <ele>877</ele>
        <time>2011-08-18T05:50:18Z</time>
      </trkpt>
      <trkpt lat="44.07202" lon="6.25669">
        <ele>876</ele>
        <time>2011-08-18T05:50:32Z</time>
      </trkpt>
      <trkpt lat="44.0718" lon="6.25633">
        <ele>891</ele>
        <time>2011-08-18T05:50:49Z</time>
      </trkpt>
      <trkpt lat="44.07168" lon="6.25602">
        <ele>894</ele>
        <time>2011-08-18T05:51:06Z</time>
      </trkpt>
      <trkpt lat="44.07166" lon="6.256">
        <ele>883</ele>
        <time>2011-08-18T05:51:08Z</time>
      </trkpt>
      <trkpt lat="44.07154" lon="6.25569">
        <ele>888</ele>
        <time>2011-08-18T05:51:24Z</time>
      </trkpt>
      <trkpt lat="44.07147" lon="6.25557">
        <ele>887</ele>
        <time>2011-08-18T05:51:32Z</time>
      </trkpt>
      <trkpt lat="44.07143" lon="6.25548">
        <ele>887</ele>
        <time>2011-08-18T05:51:37Z</time>
      </trkpt>
      <trkpt lat="44.07142" lon="6.25539">
        <ele>887</ele>
        <time>2011-08-18T05:51:41Z</time>
      </trkpt>
      <trkpt lat="44.07142" lon="6.25529">
        <ele>888</ele>
        <time>2011-08-18T05:51:47Z</time>
      </trkpt>
      <trkpt lat="44.07145" lon="6.25523">
        <ele>890</ele>
        <time>2011-08-18T05:51:50Z</time>
      </trkpt>
      <trkpt lat="44.07147" lon="6.25516">
        <ele>891</ele>
        <time>2011-08-18T05:51:53Z</time>
      </trkpt>
      <trkpt lat="44.07146" lon="6.25511">
        <ele>892</ele>
        <time>2011-08-18T05:51:55Z</time>
      </trkpt>
      <trkpt lat="44.07137" lon="6.25484">
        <ele>897</ele>
        <time>2011-08-18T05:52:09Z</time>
      </trkpt>
      <trkpt lat="44.07128" lon="6.25456">
        <ele>897</ele>
        <time>2011-08-18T05:52:24Z</time>
      </trkpt>
      <trkpt lat="44.07127" lon="6.25443">
        <ele>898</ele>
        <time>2011-08-18T05:52:30Z</time>
      </trkpt>
      <trkpt lat="44.07124" lon="6.25435">
        <ele>897</ele>
        <time>2011-08-18T05:52:35Z</time>
      </trkpt>
      <trkpt lat="44.07122" lon="6.25422">
        <ele>898</ele>
        <time>2011-08-18T05:52:40Z</time>
      </trkpt>
      <trkpt lat="44.07121" lon="6.25409">
        <ele>907</ele>
        <time>2011-08-18T05:52:45Z</time>
      </trkpt>
      <trkpt lat="44.0712" lon="6.254">
        <ele>908</ele>
        <time>2011-08-18T05:52:49Z</time>
      </trkpt>
      <trkpt lat="44.07118" lon="6.25383">
        <ele>909</ele>
        <time>2011-08-18T05:52:56Z</time>
      </trkpt>
      <trkpt lat="44.07112" lon="6.25365">
        <ele>910</ele>
        <time>2011-08-18T05:53:06Z</time>
      </trkpt>
      <trkpt lat="44.0711" lon="6.25357">
        <ele>910</ele>
        <time>2011-08-18T05:53:10Z</time>
      </trkpt>
      <trkpt lat="44.07098" lon="6.25325">
        <ele>915</ele>
        <time>2011-08-18T05:53:25Z</time>
      </trkpt>
      <trkpt lat="44.0709" lon="6.25308">
        <ele>918</ele>
        <time>2011-08-18T05:53:41Z</time>
      </trkpt>
      <trkpt lat="44.07077" lon="6.25286">
        <ele>905</ele>
        <time>2011-08-18T05:53:58Z</time>
      </trkpt>
      <trkpt lat="44.07073" lon="6.25275">
        <ele>907</ele>
        <time>2011-08-18T05:54:20Z</time>
      </trkpt>
      <trkpt lat="44.07061" lon="6.25255">
        <ele>908</ele>
        <time>2011-08-18T05:54:32Z</time>
      </trkpt>
      <trkpt lat="44.07059" lon="6.25252">
        <ele>908</ele>
        <time>2011-08-18T05:54:34Z</time>
      </trkpt>
      <trkpt lat="44.07062" lon="6.25243">
        <ele>916</ele>
        <time>2011-08-18T05:54:40Z</time>
      </trkpt>
      <trkpt lat="44.0707" lon="6.25199">
        <ele>921</ele>
        <time>2011-08-18T05:54:59Z</time>
      </trkpt>
      <trkpt lat="44.07067" lon="6.25193">
        <ele>922</ele>
        <time>2011-08-18T05:55:03Z</time>
      </trkpt>
      <trkpt lat="44.07066" lon="6.25181">
        <ele>924</ele>
        <time>2011-08-18T05:55:12Z</time>
      </trkpt>
      <trkpt lat="44.07056" lon="6.25177">
        <ele>922</ele>
        <time>2011-08-18T05:55:22Z</time>
      </trkpt>
      <trkpt lat="44.07041" lon="6.25188">
        <ele>918</ele>
        <time>2011-08-18T05:55:39Z</time>
      </trkpt>
      <trkpt lat="44.07038" lon="6.25189">
        <ele>918</ele>
        <time>2011-08-18T05:55:42Z</time>
      </trkpt>
      <trkpt lat="44.07036" lon="6.25183">
        <ele>918</ele>
        <time>2011-08-18T05:55:46Z</time>
      </trkpt>
      <trkpt lat="44.07035" lon="6.25176">
        <ele>918</ele>
        <time>2011-08-18T05:55:50Z</time>
      </trkpt>
      <trkpt lat="44.07031" lon="6.25167">
        <ele>932</ele>
        <time>2011-08-18T05:55:55Z</time>
      </trkpt>
      <trkpt lat="44.07031" lon="6.25153">
        <ele>934</ele>
        <time>2011-08-18T05:56:01Z</time>
      </trkpt>
      <trkpt lat="44.0703" lon="6.25144">
        <ele>935</ele>
        <time>2011-08-18T05:56:05Z</time>
      </trkpt>
      <trkpt lat="44.07025" lon="6.25129">
        <ele>937</ele>
        <time>2011-08-18T05:56:14Z</time>
      </trkpt>
      <trkpt lat="44.07018" lon="6.25106">
        <ele>941</ele>
        <time>2011-08-18T05:56:25Z</time>
      </trkpt>
      <trkpt lat="44.07007" lon="6.25092">
        <ele>942</ele>
        <time>2011-08-18T05:56:35Z</time>
      </trkpt>
      <trkpt lat="44.06991" lon="6.25069">
        <ele>951</ele>
        <time>2011-08-18T05:56:51Z</time>
      </trkpt>
      <trkpt lat="44.06988" lon="6.25063">
        <ele>953</ele>
        <time>2011-08-18T05:56:55Z</time>
      </trkpt>
      <trkpt lat="44.06974" lon="6.25053">
        <ele>956</ele>
        <time>2011-08-18T05:57:06Z</time>
      </trkpt>
      <trkpt lat="44.06965" lon="6.25049">
        <ele>957</ele>
        <time>2011-08-18T05:57:12Z</time>
      </trkpt>
      <trkpt lat="44.06949" lon="6.25042">
        <ele>957</ele>
        <time>2011-08-18T05:57:25Z</time>
      </trkpt>
      <trkpt lat="44.06921" lon="6.25031">
        <ele>959</ele>
        <time>2011-08-18T05:57:45Z</time>
      </trkpt>
      <trkpt lat="44.06902" lon="6.25025">
        <ele>958</ele>
        <time>2011-08-18T05:58:00Z</time>
      </trkpt>
      <trkpt lat="44.06895" lon="6.25009">
        <ele>961</ele>
        <time>2011-08-18T05:58:17Z</time>
      </trkpt>
      <trkpt lat="44.06886" lon="6.25004">
        <ele>960</ele>
        <time>2011-08-18T05:58:23Z</time>
      </trkpt>
      <trkpt lat="44.06904" lon="6.25002">
        <ele>964</ele>
        <time>2011-08-18T05:58:38Z</time>
      </trkpt>
      <trkpt lat="44.06922" lon="6.25">
        <ele>979</ele>
        <time>2011-08-18T05:58:51Z</time>
      </trkpt>
      <trkpt lat="44.06926" lon="6.24999">
        <ele>983</ele>
        <time>2011-08-18T05:58:54Z</time>
      </trkpt>
      <trkpt lat="44.0693" lon="6.24991">
        <ele>989</ele>
        <time>2011-08-18T05:59:05Z</time>
      </trkpt>
      <trkpt lat="44.06922" lon="6.24983">
        <ele>990</ele>
        <time>2011-08-18T05:59:18Z</time>
      </trkpt>
      <trkpt lat="44.06916" lon="6.2498">
        <ele>987</ele>
        <time>2011-08-18T05:59:34Z</time>
      </trkpt>
      <trkpt lat="44.06899" lon="6.2497">
        <ele>992</ele>
        <time>2011-08-18T05:59:46Z</time>
      </trkpt>
      <trkpt lat="44.06883" lon="6.24964">
        <ele>995</ele>
        <time>2011-08-18T05:59:56Z</time>
      </trkpt>
      <trkpt lat="44.06876" lon="6.24965">
        <ele>994</ele>
        <time>2011-08-18T06:00:09Z</time>
      </trkpt>
      <trkpt lat="44.06867" lon="6.24956">
        <ele>996</ele>
        <time>2011-08-18T06:00:22Z</time>
      </trkpt>
      <trkpt lat="44.06861" lon="6.24956">
        <ele>995</ele>
        <time>2011-08-18T06:00:27Z</time>
      </trkpt>
      <trkpt lat="44.06852" lon="6.2495">
        <ele>996</ele>
        <time>2011-08-18T06:00:33Z</time>
      </trkpt>
      <trkpt lat="44.06838" lon="6.24948">
        <ele>997</ele>
        <time>2011-08-18T06:00:41Z</time>
      </trkpt>
      <trkpt lat="44.06827" lon="6.24953">
        <ele>981</ele>
        <time>2011-08-18T06:00:48Z</time>
      </trkpt>
      <trkpt lat="44.06809" lon="6.24956">
        <ele>978</ele>
        <time>2011-08-18T06:01:02Z</time>
      </trkpt>
      <trkpt lat="44.06807" lon="6.24957">
        <ele>977</ele>
        <time>2011-08-18T06:01:03Z</time>
      </trkpt>
      <trkpt lat="44.06796" lon="6.24953">
        <ele>976</ele>
        <time>2011-08-18T06:01:10Z</time>
      </trkpt>
      <trkpt lat="44.06783" lon="6.2496">
        <ele>972</ele>
        <time>2011-08-18T06:01:19Z</time>
      </trkpt>
      <trkpt lat="44.06777" lon="6.24959">
        <ele>972</ele>
        <time>2011-08-18T06:01:22Z</time>
      </trkpt>
      <trkpt lat="44.06774" lon="6.24951">
        <ele>972</ele>
        <time>2011-08-18T06:01:27Z</time>
      </trkpt>
      <trkpt lat="44.06771" lon="6.24937">
        <ele>973</ele>
        <time>2011-08-18T06:01:33Z</time>
      </trkpt>
      <trkpt lat="44.06768" lon="6.24933">
        <ele>972</ele>
        <time>2011-08-18T06:01:36Z</time>
      </trkpt>
      <trkpt lat="44.06765" lon="6.24906">
        <ele>985</ele>
        <time>2011-08-18T06:01:50Z</time>
      </trkpt>
      <trkpt lat="44.06766" lon="6.24883">
        <ele>994</ele>
        <time>2011-08-18T06:02:02Z</time>
      </trkpt>
      <trkpt lat="44.06756" lon="6.24861">
        <ele>998</ele>
        <time>2011-08-18T06:02:15Z</time>
      </trkpt>
      <trkpt lat="44.06753" lon="6.24847">
        <ele>999</ele>
        <time>2011-08-18T06:02:20Z</time>
      </trkpt>
      <trkpt lat="44.06745" lon="6.24838">
        <ele>993</ele>
        <time>2011-08-18T06:02:29Z</time>
      </trkpt>
      <trkpt lat="44.0673" lon="6.24836">
        <ele>987</ele>
        <time>2011-08-18T06:02:39Z</time>
      </trkpt>
      <trkpt lat="44.06714" lon="6.24812">
        <ele>1000</ele>
        <time>2011-08-18T06:02:55Z</time>
      </trkpt>
      <trkpt lat="44.06713" lon="6.24807">
        <ele>1001</ele>
        <time>2011-08-18T06:02:58Z</time>
      </trkpt>
      <trkpt lat="44.06708" lon="6.24799">
        <ele>1001</ele>
        <time>2011-08-18T06:03:03Z</time>
      </trkpt>
      <trkpt lat="44.06704" lon="6.24791">
        <ele>1002</ele>
        <time>2011-08-18T06:03:07Z</time>
      </trkpt>
      <trkpt lat="44.06703" lon="6.24782">
        <ele>1003</ele>
        <time>2011-08-18T06:03:11Z</time>
      </trkpt>
      <trkpt lat="44.06707" lon="6.24768">
        <ele>1005</ele>
        <time>2011-08-18T06:03:26Z</time>
      </trkpt>
      <trkpt lat="44.0671" lon="6.2475">
        <ele>1025</ele>
        <time>2011-08-18T06:03:45Z</time>
      </trkpt>
      <trkpt lat="44.0671" lon="6.24748">
        <ele>1025</ele>
        <time>2011-08-18T06:03:46Z</time>
      </trkpt>
      <trkpt lat="44.06709" lon="6.24744">
        <ele>1025</ele>
        <time>2011-08-18T06:03:48Z</time>
      </trkpt>
      <trkpt lat="44.06711" lon="6.24728">
        <ele>1027</ele>
        <time>2011-08-18T06:03:59Z</time>
      </trkpt>
      <trkpt lat="44.06712" lon="6.24722">
        <ele>1028</ele>
        <time>2011-08-18T06:04:01Z</time>
      </trkpt>
      <trkpt lat="44.06709" lon="6.24718">
        <ele>1029</ele>
        <time>2011-08-18T06:04:05Z</time>
      </trkpt>
      <trkpt lat="44.06703" lon="6.24718">
        <ele>1028</ele>
        <time>2011-08-18T06:04:10Z</time>
      </trkpt>
      <trkpt lat="44.06698" lon="6.2472">
        <ele>1027</ele>
        <time>2011-08-18T06:04:13Z</time>
      </trkpt>
      <trkpt lat="44.06685" lon="6.24718">
        <ele>1025</ele>
        <time>2011-08-18T06:04:26Z</time>
      </trkpt>
      <trkpt lat="44.06675" lon="6.2472">
        <ele>1023</ele>
        <time>2011-08-18T06:04:39Z</time>
      </trkpt>
      <trkpt lat="44.06662" lon="6.24729">
        <ele>1008</ele>
        <time>2011-08-18T06:04:54Z</time>
      </trkpt>
      <trkpt lat="44.06658" lon="6.24733">
        <ele>1007</ele>
        <time>2011-08-18T06:04:57Z</time>
      </trkpt>
      <trkpt lat="44.06651" lon="6.24734">
        <ele>1007</ele>
        <time>2011-08-18T06:05:01Z</time>
      </trkpt>
      <trkpt lat="44.06648" lon="6.24733">
        <ele>1007</ele>
        <time>2011-08-18T06:05:03Z</time>
      </trkpt>
      <trkpt lat="44.06637" lon="6.24708">
        <ele>1011</ele>
        <time>2011-08-18T06:05:17Z</time>
      </trkpt>
      <trkpt lat="44.06621" lon="6.24679">
        <ele>1013</ele>
        <time>2011-08-18T06:05:34Z</time>
      </trkpt>
      <trkpt lat="44.06608" lon="6.24674">
        <ele>1012</ele>
        <time>2011-08-18T06:05:43Z</time>
      </trkpt>
      <trkpt lat="44.06609" lon="6.24669">
        <ele>1013</ele>
        <time>2011-08-18T06:05:56Z</time>
      </trkpt>
      <trkpt lat="44.06617" lon="6.24663">
        <ele>1033</ele>
        <time>2011-08-18T06:06:13Z</time>
      </trkpt>
      <trkpt lat="44.06618" lon="6.24663">
        <ele>1033</ele>
        <time>2011-08-18T06:06:17Z</time>
      </trkpt>
      <trkpt lat="44.06627" lon="6.24674">
        <ele>1015</ele>
        <time>2011-08-18T06:06:26Z</time>
      </trkpt>
      <trkpt lat="44.06644" lon="6.24684">
        <ele>1018</ele>
        <time>2011-08-18T06:06:39Z</time>
      </trkpt>
      <trkpt lat="44.0665" lon="6.24685">
        <ele>1019</ele>
        <time>2011-08-18T06:06:43Z</time>
      </trkpt>
      <trkpt lat="44.06667" lon="6.24676">
        <ele>1034</ele>
        <time>2011-08-18T06:06:56Z</time>
      </trkpt>
      <trkpt lat="44.06675" lon="6.24676">
        <ele>1034</ele>
        <time>2011-08-18T06:07:07Z</time>
      </trkpt>
      <trkpt lat="44.06669" lon="6.24672">
        <ele>1035</ele>
        <time>2011-08-18T06:07:18Z</time>
      </trkpt>
      <trkpt lat="44.06663" lon="6.24671">
        <ele>1031</ele>
        <time>2011-08-18T06:07:29Z</time>
      </trkpt>
      <trkpt lat="44.06651" lon="6.24657">
        <ele>1038</ele>
        <time>2011-08-18T06:07:43Z</time>
      </trkpt>
      <trkpt lat="44.06637" lon="6.24638">
        <ele>1039</ele>
        <time>2011-08-18T06:07:57Z</time>
      </trkpt>
      <trkpt lat="44.06622" lon="6.24618">
        <ele>1041</ele>
        <time>2011-08-18T06:08:13Z</time>
      </trkpt>
      <trkpt lat="44.06613" lon="6.24607">
        <ele>1042</ele>
        <time>2011-08-18T06:08:30Z</time>
      </trkpt>
      <trkpt lat="44.06614" lon="6.24606">
        <ele>1042</ele>
        <time>2011-08-18T06:08:31Z</time>
      </trkpt>
      <trkpt lat="44.06621" lon="6.24602">
        <ele>1044</ele>
        <time>2011-08-18T06:08:45Z</time>
      </trkpt>
      <trkpt lat="44.06624" lon="6.24602">
        <ele>1044</ele>
        <time>2011-08-18T06:08:49Z</time>
      </trkpt>
      <trkpt lat="44.06633" lon="6.24602">
        <ele>1045</ele>
        <time>2011-08-18T06:09:01Z</time>
      </trkpt>
      <trkpt lat="44.06639" lon="6.246">
        <ele>1047</ele>
        <time>2011-08-18T06:09:16Z</time>
      </trkpt>
      <trkpt lat="44.06633" lon="6.24596">
        <ele>1046</ele>
        <time>2011-08-18T06:09:26Z</time>
      </trkpt>
      <trkpt lat="44.06625" lon="6.24589">
        <ele>1046</ele>
        <time>2011-08-18T06:09:44Z</time>
      </trkpt>
      <trkpt lat="44.06614" lon="6.24585">
        <ele>1045</ele>
        <time>2011-08-18T06:09:50Z</time>
      </trkpt>
      <trkpt lat="44.06609" lon="6.2458">
        <ele>1059</ele>
        <time>2011-08-18T06:09:55Z</time>
      </trkpt>
      <trkpt lat="44.06605" lon="6.24554">
        <ele>1063</ele>
        <time>2011-08-18T06:10:07Z</time>
      </trkpt>
      <trkpt lat="44.06591" lon="6.24545">
        <ele>1064</ele>
        <time>2011-08-18T06:10:17Z</time>
      </trkpt>
      <trkpt lat="44.06578" lon="6.24541">
        <ele>1058</ele>
        <time>2011-08-18T06:10:24Z</time>
      </trkpt>
      <trkpt lat="44.06574" lon="6.24534">
        <ele>1060</ele>
        <time>2011-08-18T06:10:28Z</time>
      </trkpt>
      <trkpt lat="44.06565" lon="6.24528">
        <ele>1060</ele>
        <time>2011-08-18T06:10:33Z</time>
      </trkpt>
      <trkpt lat="44.06559" lon="6.24524">
        <ele>1061</ele>
        <time>2011-08-18T06:10:37Z</time>
      </trkpt>
      <trkpt lat="44.0655" lon="6.24519">
        <ele>1061</ele>
        <time>2011-08-18T06:10:44Z</time>
      </trkpt>
      <trkpt lat="44.06547" lon="6.24515">
        <ele>1061</ele>
        <time>2011-08-18T06:10:46Z</time>
      </trkpt>
      <trkpt lat="44.06537" lon="6.24498">
        <ele>1079</ele>
        <time>2011-08-18T06:10:55Z</time>
      </trkpt>
      <trkpt lat="44.06514" lon="6.24493">
        <ele>1077</ele>
        <time>2011-08-18T06:11:08Z</time>
      </trkpt>
      <trkpt lat="44.06496" lon="6.24485">
        <ele>1077</ele>
        <time>2011-08-18T06:11:20Z</time>
      </trkpt>
      <trkpt lat="44.06564" lon="6.24592">
        <ele>1036</ele>
        <time>2011-08-18T06:11:28Z</time>
      </trkpt>
      <trkpt lat="44.06572" lon="6.24593">
        <ele>1038</ele>
        <time>2011-08-18T06:11:49Z</time>
      </trkpt>
      <trkpt lat="44.06595" lon="6.24582">
        <ele>1054</ele>
        <time>2011-08-18T06:12:04Z</time>
      </trkpt>
      <trkpt lat="44.06601" lon="6.24584">
        <ele>1044</ele>
        <time>2011-08-18T06:12:09Z</time>
      </trkpt>
      <trkpt lat="44.06605" lon="6.24588">
        <ele>1044</ele>
        <time>2011-08-18T06:12:13Z</time>
      </trkpt>
      <trkpt lat="44.06619" lon="6.24588">
        <ele>1045</ele>
        <time>2011-08-18T06:12:22Z</time>
      </trkpt>
      <trkpt lat="44.06628" lon="6.2459">
        <ele>1046</ele>
        <time>2011-08-18T06:12:28Z</time>
      </trkpt>
      <trkpt lat="44.06655" lon="6.24602">
        <ele>1050</ele>
        <time>2011-08-18T06:12:43Z</time>
      </trkpt>
      <trkpt lat="44.06678" lon="6.24607">
        <ele>1059</ele>
        <time>2011-08-18T06:12:58Z</time>
      </trkpt>
      <trkpt lat="44.06712" lon="6.24617">
        <ele>1060</ele>
        <time>2011-08-18T06:13:19Z</time>
      </trkpt>
      <trkpt lat="44.06731" lon="6.24637">
        <ele>1059</ele>
        <time>2011-08-18T06:13:34Z</time>
      </trkpt>
      <trkpt lat="44.06736" lon="6.24642">
        <ele>1058</ele>
        <time>2011-08-18T06:13:44Z</time>
      </trkpt>
      <trkpt lat="44.06745" lon="6.24643">
        <ele>1058</ele>
        <time>2011-08-18T06:14:01Z</time>
      </trkpt>
      <trkpt lat="44.06758" lon="6.2464">
        <ele>1069</ele>
        <time>2011-08-18T06:14:22Z</time>
      </trkpt>
      <trkpt lat="44.06762" lon="6.24636">
        <ele>1070</ele>
        <time>2011-08-18T06:14:36Z</time>
      </trkpt>
      <trkpt lat="44.06761" lon="6.24635">
        <ele>1070</ele>
        <time>2011-08-18T06:14:37Z</time>
      </trkpt>
      <trkpt lat="44.06754" lon="6.24618">
        <ele>1073</ele>
        <time>2011-08-18T06:14:53Z</time>
      </trkpt>
      <trkpt lat="44.06751" lon="6.24613">
        <ele>1074</ele>
        <time>2011-08-18T06:14:57Z</time>
      </trkpt>
      <trkpt lat="44.06757" lon="6.24606">
        <ele>1075</ele>
        <time>2011-08-18T06:15:10Z</time>
      </trkpt>
      <trkpt lat="44.06763" lon="6.24602">
        <ele>1076</ele>
        <time>2011-08-18T06:15:18Z</time>
      </trkpt>
      <trkpt lat="44.06767" lon="6.24596">
        <ele>1076</ele>
        <time>2011-08-18T06:15:30Z</time>
      </trkpt>
      <trkpt lat="44.06767" lon="6.24595">
        <ele>1076</ele>
        <time>2011-08-18T06:15:37Z</time>
      </trkpt>
      <trkpt lat="44.06771" lon="6.24583">
        <ele>1083</ele>
        <time>2011-08-18T06:15:56Z</time>
      </trkpt>
      <trkpt lat="44.06767" lon="6.24571">
        <ele>1083</ele>
        <time>2011-08-18T06:16:16Z</time>
      </trkpt>
      <trkpt lat="44.06759" lon="6.24566">
        <ele>1083</ele>
        <time>2011-08-18T06:16:36Z</time>
      </trkpt>
      <trkpt lat="44.06746" lon="6.24557">
        <ele>1080</ele>
        <time>2011-08-18T06:16:51Z</time>
      </trkpt>
      <trkpt lat="44.06743" lon="6.24553">
        <ele>1080</ele>
        <time>2011-08-18T06:16:54Z</time>
      </trkpt>
      <trkpt lat="44.06699" lon="6.24528">
        <ele>1081</ele>
        <time>2011-08-18T06:17:13Z</time>
      </trkpt>
      <trkpt lat="44.0665" lon="6.24499">
        <ele>1086</ele>
        <time>2011-08-18T06:17:29Z</time>
      </trkpt>
      <trkpt lat="44.06602" lon="6.24464">
        <ele>1086</ele>
        <time>2011-08-18T06:17:46Z</time>
      </trkpt>
      <trkpt lat="44.06552" lon="6.24459">
        <ele>1083</ele>
        <time>2011-08-18T06:18:01Z</time>
      </trkpt>
      <trkpt lat="44.06523" lon="6.24471">
        <ele>1081</ele>
        <time>2011-08-18T06:18:11Z</time>
      </trkpt>
      <trkpt lat="44.06519" lon="6.24475">
        <ele>1081</ele>
        <time>2011-08-18T06:18:15Z</time>
      </trkpt>
      <trkpt lat="44.06522" lon="6.24473">
        <ele>1081</ele>
        <time>2011-08-18T06:18:24Z</time>
      </trkpt>
      <trkpt lat="44.06483" lon="6.24485">
        <ele>1079</ele>
        <time>2011-08-18T06:18:35Z</time>
      </trkpt>
      <trkpt lat="44.06409" lon="6.24485">
        <ele>1078</ele>
        <time>2011-08-18T06:18:47Z</time>
      </trkpt>
      <trkpt lat="44.06329" lon="6.24531">
        <ele>1064</ele>
        <time>2011-08-18T06:18:58Z</time>
      </trkpt>
      <trkpt lat="44.06322" lon="6.24537">
        <ele>1062</ele>
        <time>2011-08-18T06:18:59Z</time>
      </trkpt>
      <trkpt lat="44.06296" lon="6.2455">
        <ele>1060</ele>
        <time>2011-08-18T06:19:03Z</time>
      </trkpt>
      <trkpt lat="44.06217" lon="6.24565">
        <ele>1059</ele>
        <time>2011-08-18T06:19:15Z</time>
      </trkpt>
      <trkpt lat="44.06144" lon="6.24572">
        <ele>1056</ele>
        <time>2011-08-18T06:19:27Z</time>
      </trkpt>
      <trkpt lat="44.06136" lon="6.24572">
        <ele>1058</ele>
        <time>2011-08-18T06:19:34Z</time>
      </trkpt>
      <trkpt lat="44.06118" lon="6.24583">
        <ele>1057</ele>
        <time>2011-08-18T06:19:45Z</time>
      </trkpt>
      <trkpt lat="44.06066" lon="6.24628">
        <ele>1045</ele>
        <time>2011-08-18T06:19:54Z</time>
      </trkpt>
      <trkpt lat="44.06045" lon="6.24642">
        <ele>1045</ele>
        <time>2011-08-18T06:19:57Z</time>
      </trkpt>
      <trkpt lat="44.0601" lon="6.24687">
        <ele>1034</ele>
        <time>2011-08-18T06:20:03Z</time>
      </trkpt>
      <trkpt lat="44.05998" lon="6.24703">
        <ele>1049</ele>
        <time>2011-08-18T06:20:05Z</time>
      </trkpt>
      <trkpt lat="44.05973" lon="6.2475">
        <ele>1045</ele>
        <time>2011-08-18T06:20:10Z</time>
      </trkpt>
      <trkpt lat="44.0596" lon="6.24804">
        <ele>1035</ele>
        <time>2011-08-18T06:20:15Z</time>
      </trkpt>
      <trkpt lat="44.05948" lon="6.24836">
        <ele>1034</ele>
        <time>2011-08-18T06:20:19Z</time>
      </trkpt>
      <trkpt lat="44.05945" lon="6.24866">
        <ele>1035</ele>
        <time>2011-08-18T06:20:23Z</time>
      </trkpt>
      <trkpt lat="44.05948" lon="6.24878">
        <ele>1035</ele>
        <time>2011-08-18T06:20:25Z</time>
      </trkpt>
      <trkpt lat="44.05944" lon="6.24901">
        <ele>1036</ele>
        <time>2011-08-18T06:20:32Z</time>
      </trkpt>
      <trkpt lat="44.0594" lon="6.2491">
        <ele>1036</ele>
        <time>2011-08-18T06:20:40Z</time>
      </trkpt>
      <trkpt lat="44.05917" lon="6.24921">
        <ele>1041</ele>
        <time>2011-08-18T06:20:54Z</time>
      </trkpt>
      <trkpt lat="44.05911" lon="6.24926">
        <ele>1043</ele>
        <time>2011-08-18T06:20:59Z</time>
      </trkpt>
      <trkpt lat="44.05878" lon="6.24932">
        <ele>1050</ele>
        <time>2011-08-18T06:21:17Z</time>
      </trkpt>
      <trkpt lat="44.05847" lon="6.24942">
        <ele>1052</ele>
        <time>2011-08-18T06:21:39Z</time>
      </trkpt>
      <trkpt lat="44.05821" lon="6.24948">
        <ele>1060</ele>
        <time>2011-08-18T06:21:57Z</time>
      </trkpt>
      <trkpt lat="44.05794" lon="6.24957">
        <ele>1064</ele>
        <time>2011-08-18T06:22:14Z</time>
      </trkpt>
      <trkpt lat="44.05777" lon="6.24965">
        <ele>1065</ele>
        <time>2011-08-18T06:22:27Z</time>
      </trkpt>
      <trkpt lat="44.05751" lon="6.24982">
        <ele>1066</ele>
        <time>2011-08-18T06:22:47Z</time>
      </trkpt>
      <trkpt lat="44.05745" lon="6.24991">
        <ele>1074</ele>
        <time>2011-08-18T06:22:54Z</time>
      </trkpt>
      <trkpt lat="44.05739" lon="6.24994">
        <ele>1075</ele>
        <time>2011-08-18T06:22:59Z</time>
      </trkpt>
      <trkpt lat="44.05736" lon="6.24994">
        <ele>1076</ele>
        <time>2011-08-18T06:23:01Z</time>
      </trkpt>
      <trkpt lat="44.05721" lon="6.25003">
        <ele>1080</ele>
        <time>2011-08-18T06:23:15Z</time>
      </trkpt>
      <trkpt lat="44.05711" lon="6.2501">
        <ele>1082</ele>
        <time>2011-08-18T06:23:25Z</time>
      </trkpt>
      <trkpt lat="44.05708" lon="6.2502">
        <ele>1083</ele>
        <time>2011-08-18T06:23:32Z</time>
      </trkpt>
      <trkpt lat="44.05705" lon="6.25024">
        <ele>1084</ele>
        <time>2011-08-18T06:23:35Z</time>
      </trkpt>
      <trkpt lat="44.05702" lon="6.25029">
        <ele>1084</ele>
        <time>2011-08-18T06:23:39Z</time>
      </trkpt>
      <trkpt lat="44.05696" lon="6.25033">
        <ele>1085</ele>
        <time>2011-08-18T06:23:43Z</time>
      </trkpt>
      <trkpt lat="44.05665" lon="6.2505">
        <ele>1091</ele>
        <time>2011-08-18T06:24:03Z</time>
      </trkpt>
      <trkpt lat="44.05634" lon="6.25061">
        <ele>1091</ele>
        <time>2011-08-18T06:24:26Z</time>
      </trkpt>
      <trkpt lat="44.05616" lon="6.25064">
        <ele>1092</ele>
        <time>2011-08-18T06:24:41Z</time>
      </trkpt>
      <trkpt lat="44.05603" lon="6.25069">
        <ele>1093</ele>
        <time>2011-08-18T06:24:57Z</time>
      </trkpt>
      <trkpt lat="44.0559" lon="6.25074">
        <ele>1093</ele>
        <time>2011-08-18T06:25:13Z</time>
      </trkpt>
      <trkpt lat="44.05588" lon="6.25074">
        <ele>1093</ele>
        <time>2011-08-18T06:25:17Z</time>
      </trkpt>
      <trkpt lat="44.05562" lon="6.25064">
        <ele>1099</ele>
        <time>2011-08-18T06:25:35Z</time>
      </trkpt>
      <trkpt lat="44.0553" lon="6.25043">
        <ele>1102</ele>
        <time>2011-08-18T06:25:59Z</time>
      </trkpt>
      <trkpt lat="44.05494" lon="6.25042">
        <ele>1110</ele>
        <time>2011-08-18T06:26:23Z</time>
      </trkpt>
      <trkpt lat="44.05464" lon="6.25046">
        <ele>1111</ele>
        <time>2011-08-18T06:26:44Z</time>
      </trkpt>
      <trkpt lat="44.05436" lon="6.25044">
        <ele>1113</ele>
        <time>2011-08-18T06:27:04Z</time>
      </trkpt>
      <trkpt lat="44.05403" lon="6.25043">
        <ele>1120</ele>
        <time>2011-08-18T06:27:27Z</time>
      </trkpt>
      <trkpt lat="44.05374" lon="6.2505">
        <ele>1121</ele>
        <time>2011-08-18T06:27:47Z</time>
      </trkpt>
      <trkpt lat="44.05345" lon="6.25052">
        <ele>1123</ele>
        <time>2011-08-18T06:28:08Z</time>
      </trkpt>
      <trkpt lat="44.05315" lon="6.25055">
        <ele>1130</ele>
        <time>2011-08-18T06:28:31Z</time>
      </trkpt>
      <trkpt lat="44.05289" lon="6.25053">
        <ele>1132</ele>
        <time>2011-08-18T06:28:50Z</time>
      </trkpt>
      <trkpt lat="44.0527" lon="6.2505">
        <ele>1133</ele>
        <time>2011-08-18T06:29:07Z</time>
      </trkpt>
      <trkpt lat="44.05254" lon="6.25051">
        <ele>1134</ele>
        <time>2011-08-18T06:29:25Z</time>
      </trkpt>
      <trkpt lat="44.0524" lon="6.25054">
        <ele>1140</ele>
        <time>2011-08-18T06:29:39Z</time>
      </trkpt>
      <trkpt lat="44.05225" lon="6.25054">
        <ele>1141</ele>
        <time>2011-08-18T06:29:56Z</time>
      </trkpt>
      <trkpt lat="44.05212" lon="6.25052">
        <ele>1142</ele>
        <time>2011-08-18T06:30:10Z</time>
      </trkpt>
      <trkpt lat="44.05199" lon="6.2505">
        <ele>1142</ele>
        <time>2011-08-18T06:30:27Z</time>
      </trkpt>
      <trkpt lat="44.05194" lon="6.25046">
        <ele>1142</ele>
        <time>2011-08-18T06:30:45Z</time>
      </trkpt>
      <trkpt lat="44.05192" lon="6.25046">
        <ele>1142</ele>
        <time>2011-08-18T06:30:48Z</time>
      </trkpt>
      <trkpt lat="44.05178" lon="6.2504">
        <ele>1143</ele>
        <time>2011-08-18T06:30:59Z</time>
      </trkpt>
      <trkpt lat="44.0516" lon="6.25036">
        <ele>1152</ele>
        <time>2011-08-18T06:31:11Z</time>
      </trkpt>
      <trkpt lat="44.05139" lon="6.25034">
        <ele>1154</ele>
        <time>2011-08-18T06:31:26Z</time>
      </trkpt>
      <trkpt lat="44.05137" lon="6.25033">
        <ele>1154</ele>
        <time>2011-08-18T06:31:28Z</time>
      </trkpt>
      <trkpt lat="44.05118" lon="6.25018">
        <ele>1155</ele>
        <time>2011-08-18T06:31:45Z</time>
      </trkpt>
      <trkpt lat="44.05113" lon="6.25014">
        <ele>1155</ele>
        <time>2011-08-18T06:31:49Z</time>
      </trkpt>
      <trkpt lat="44.05096" lon="6.24999">
        <ele>1158</ele>
        <time>2011-08-18T06:32:04Z</time>
      </trkpt>
      <trkpt lat="44.05081" lon="6.24991">
        <ele>1163</ele>
        <time>2011-08-18T06:32:21Z</time>
      </trkpt>
      <trkpt lat="44.05069" lon="6.24984">
        <ele>1168</ele>
        <time>2011-08-18T06:32:38Z</time>
      </trkpt>
      <trkpt lat="44.05064" lon="6.24979">
        <ele>1170</ele>
        <time>2011-08-18T06:32:45Z</time>
      </trkpt>
      <trkpt lat="44.05046" lon="6.24958">
        <ele>1175</ele>
        <time>2011-08-18T06:33:09Z</time>
      </trkpt>
      <trkpt lat="44.05037" lon="6.24946">
        <ele>1176</ele>
        <time>2011-08-18T06:33:23Z</time>
      </trkpt>
      <trkpt lat="44.05033" lon="6.24954">
        <ele>1177</ele>
        <time>2011-08-18T06:33:32Z</time>
      </trkpt>
      <trkpt lat="44.05033" lon="6.2497">
        <ele>1177</ele>
        <time>2011-08-18T06:33:44Z</time>
      </trkpt>
      <trkpt lat="44.05035" lon="6.24975">
        <ele>1177</ele>
        <time>2011-08-18T06:33:48Z</time>
      </trkpt>
      <trkpt lat="44.05035" lon="6.24988">
        <ele>1178</ele>
        <time>2011-08-18T06:33:57Z</time>
      </trkpt>
      <trkpt lat="44.05037" lon="6.25002">
        <ele>1184</ele>
        <time>2011-08-18T06:34:12Z</time>
      </trkpt>
      <trkpt lat="44.05052" lon="6.25025">
        <ele>1181</ele>
        <time>2011-08-18T06:34:26Z</time>
      </trkpt>
      <trkpt lat="44.0506" lon="6.25035">
        <ele>1181</ele>
        <time>2011-08-18T06:34:41Z</time>
      </trkpt>
      <trkpt lat="44.05068" lon="6.25051">
        <ele>1182</ele>
        <time>2011-08-18T06:34:59Z</time>
      </trkpt>
      <trkpt lat="44.05075" lon="6.25066">
        <ele>1181</ele>
        <time>2011-08-18T06:35:11Z</time>
      </trkpt>
      <trkpt lat="44.05082" lon="6.25079">
        <ele>1178</ele>
        <time>2011-08-18T06:35:27Z</time>
      </trkpt>
      <trkpt lat="44.05082" lon="6.2508">
        <ele>1177</ele>
        <time>2011-08-18T06:35:28Z</time>
      </trkpt>
      <trkpt lat="44.05086" lon="6.25095">
        <ele>1178</ele>
        <time>2011-08-18T06:35:41Z</time>
      </trkpt>
      <trkpt lat="44.05089" lon="6.25097">
        <ele>1178</ele>
        <time>2011-08-18T06:35:42Z</time>
      </trkpt>
      <trkpt lat="44.05104" lon="6.25111">
        <ele>1180</ele>
        <time>2011-08-18T06:35:55Z</time>
      </trkpt>
      <trkpt lat="44.05113" lon="6.25124">
        <ele>1182</ele>
        <time>2011-08-18T06:36:06Z</time>
      </trkpt>
      <trkpt lat="44.05118" lon="6.25138">
        <ele>1184</ele>
        <time>2011-08-18T06:36:16Z</time>
      </trkpt>
      <trkpt lat="44.05122" lon="6.25139">
        <ele>1183</ele>
        <time>2011-08-18T06:36:27Z</time>
      </trkpt>
      <trkpt lat="44.05133" lon="6.25145">
        <ele>1183</ele>
        <time>2011-08-18T06:36:40Z</time>
      </trkpt>
      <trkpt lat="44.0514" lon="6.2515">
        <ele>1183</ele>
        <time>2011-08-18T06:36:48Z</time>
      </trkpt>
      <trkpt lat="44.05154" lon="6.25157">
        <ele>1183</ele>
        <time>2011-08-18T06:37:02Z</time>
      </trkpt>
      <trkpt lat="44.05168" lon="6.25161">
        <ele>1181</ele>
        <time>2011-08-18T06:37:14Z</time>
      </trkpt>
      <trkpt lat="44.05179" lon="6.25168">
        <ele>1190</ele>
        <time>2011-08-18T06:37:26Z</time>
      </trkpt>
      <trkpt lat="44.05181" lon="6.25169">
        <ele>1191</ele>
        <time>2011-08-18T06:37:27Z</time>
      </trkpt>
      <trkpt lat="44.05202" lon="6.25169">
        <ele>1192</ele>
        <time>2011-08-18T06:37:46Z</time>
      </trkpt>
      <trkpt lat="44.05217" lon="6.25166">
        <ele>1168</ele>
        <time>2011-08-18T06:37:59Z</time>
      </trkpt>
      <trkpt lat="44.05239" lon="6.25175">
        <ele>1184</ele>
        <time>2011-08-18T06:38:12Z</time>
      </trkpt>
      <trkpt lat="44.05245" lon="6.25178">
        <ele>1183</ele>
        <time>2011-08-18T06:38:25Z</time>
      </trkpt>
      <trkpt lat="44.05248" lon="6.2518">
        <ele>1184</ele>
        <time>2011-08-18T06:38:35Z</time>
      </trkpt>
      <trkpt lat="44.05253" lon="6.25186">
        <ele>1182</ele>
        <time>2011-08-18T06:38:48Z</time>
      </trkpt>
      <trkpt lat="44.05255" lon="6.25189">
        <ele>1183</ele>
        <time>2011-08-18T06:39:11Z</time>
      </trkpt>
      <trkpt lat="44.05255" lon="6.25189">
        <ele>1183</ele>
        <time>2011-08-18T06:44:27Z</time>
      </trkpt>
      <trkpt lat="44.05263" lon="6.25195">
        <ele>1185</ele>
        <time>2011-08-18T06:49:16Z</time>
      </trkpt>
      <trkpt lat="44.05276" lon="6.25205">
        <ele>1188</ele>
        <time>2011-08-18T06:49:36Z</time>
      </trkpt>
      <trkpt lat="44.05291" lon="6.25214">
        <ele>1189</ele>
        <time>2011-08-18T06:49:57Z</time>
      </trkpt>
      <trkpt lat="44.05309" lon="6.2523">
        <ele>1192</ele>
        <time>2011-08-18T06:50:22Z</time>
      </trkpt>
      <trkpt lat="44.0532" lon="6.25239">
        <ele>1194</ele>
        <time>2011-08-18T06:50:40Z</time>
      </trkpt>
      <trkpt lat="44.05328" lon="6.25242">
        <ele>1196</ele>
        <time>2011-08-18T06:50:54Z</time>
      </trkpt>
      <trkpt lat="44.05349" lon="6.25252">
        <ele>1198</ele>
        <time>2011-08-18T06:51:08Z</time>
      </trkpt>
      <trkpt lat="44.05358" lon="6.25258">
        <ele>1197</ele>
        <time>2011-08-18T06:51:19Z</time>
      </trkpt>
      <trkpt lat="44.05359" lon="6.25267">
        <ele>1197</ele>
        <time>2011-08-18T06:51:35Z</time>
      </trkpt>
      <trkpt lat="44.05359" lon="6.25267">
        <ele>1197</ele>
        <time>2011-08-18T06:51:40Z</time>
      </trkpt>
      <trkpt lat="44.0535" lon="6.25274">
        <ele>1197</ele>
        <time>2011-08-18T06:51:54Z</time>
      </trkpt>
      <trkpt lat="44.05349" lon="6.25277">
        <ele>1197</ele>
        <time>2011-08-18T06:52:17Z</time>
      </trkpt>
      <trkpt lat="44.05349" lon="6.25277">
        <ele>1197</ele>
        <time>2011-08-18T06:52:36Z</time>
      </trkpt>
      <trkpt lat="44.05358" lon="6.2529">
        <ele>1196</ele>
        <time>2011-08-18T06:52:47Z</time>
      </trkpt>
      <trkpt lat="44.05363" lon="6.25293">
        <ele>1196</ele>
        <time>2011-08-18T06:52:58Z</time>
      </trkpt>
      <trkpt lat="44.05363" lon="6.25292">
        <ele>1196</ele>
        <time>2011-08-18T06:53:46Z</time>
      </trkpt>
      <trkpt lat="44.05384" lon="6.25302">
        <ele>1195</ele>
        <time>2011-08-18T06:55:29Z</time>
      </trkpt>
      <trkpt lat="44.05415" lon="6.25319">
        <ele>1194</ele>
        <time>2011-08-18T06:55:41Z</time>
      </trkpt>
      <trkpt lat="44.05423" lon="6.25324">
        <ele>1192</ele>
        <time>2011-08-18T06:55:51Z</time>
      </trkpt>
      <trkpt lat="44.05448" lon="6.25336">
        <ele>1185</ele>
        <time>2011-08-18T06:56:04Z</time>
      </trkpt>
      <trkpt lat="44.05448" lon="6.25336">
        <ele>1185</ele>
        <time>2011-08-18T06:56:20Z</time>
      </trkpt>
      <trkpt lat="44.05452" lon="6.25338">
        <ele>1185</ele>
        <time>2011-08-18T06:56:38Z</time>
      </trkpt>
      <trkpt lat="44.05468" lon="6.25348">
        <ele>1185</ele>
        <time>2011-08-18T06:56:49Z</time>
      </trkpt>
      <trkpt lat="44.05479" lon="6.25356">
        <ele>1185</ele>
        <time>2011-08-18T06:57:01Z</time>
      </trkpt>
      <trkpt lat="44.05479" lon="6.25356">
        <ele>1185</ele>
        <time>2011-08-18T06:57:02Z</time>
      </trkpt>
      <trkpt lat="44.05483" lon="6.2536">
        <ele>1184</ele>
        <time>2011-08-18T06:57:05Z</time>
      </trkpt>
      <trkpt lat="44.05495" lon="6.25368">
        <ele>1183</ele>
        <time>2011-08-18T06:57:18Z</time>
      </trkpt>
      <trkpt lat="44.05503" lon="6.25374">
        <ele>1188</ele>
        <time>2011-08-18T06:57:33Z</time>
      </trkpt>
      <trkpt lat="44.055" lon="6.25374">
        <ele>1188</ele>
        <time>2011-08-18T06:57:48Z</time>
      </trkpt>
      <trkpt lat="44.05499" lon="6.25373">
        <ele>1182</ele>
        <time>2011-08-18T06:58:17Z</time>
      </trkpt>
      <trkpt lat="44.05499" lon="6.25373">
        <ele>1182</ele>
        <time>2011-08-18T07:00:58Z</time>
      </trkpt>
      <trkpt lat="44.05488" lon="6.25375">
        <ele>1181</ele>
        <time>2011-08-18T07:01:10Z</time>
      </trkpt>
      <trkpt lat="44.05486" lon="6.25376">
        <ele>1181</ele>
        <time>2011-08-18T07:01:13Z</time>
      </trkpt>
      <trkpt lat="44.05483" lon="6.25376">
        <ele>1180</ele>
        <time>2011-08-18T07:01:15Z</time>
      </trkpt>
      <trkpt lat="44.05461" lon="6.2538">
        <ele>1179</ele>
        <time>2011-08-18T07:01:28Z</time>
      </trkpt>
      <trkpt lat="44.05438" lon="6.25383">
        <ele>1176</ele>
        <time>2011-08-18T07:01:41Z</time>
      </trkpt>
      <trkpt lat="44.05427" lon="6.25387">
        <ele>1174</ele>
        <time>2011-08-18T07:01:52Z</time>
      </trkpt>
      <trkpt lat="44.05416" lon="6.25389">
        <ele>1171</ele>
        <time>2011-08-18T07:02:04Z</time>
      </trkpt>
      <trkpt lat="44.05414" lon="6.2539">
        <ele>1171</ele>
        <time>2011-08-18T07:02:06Z</time>
      </trkpt>
      <trkpt lat="44.05403" lon="6.25395">
        <ele>1170</ele>
        <time>2011-08-18T07:02:20Z</time>
      </trkpt>
      <trkpt lat="44.05394" lon="6.25397">
        <ele>1170</ele>
        <time>2011-08-18T07:02:36Z</time>
      </trkpt>
      <trkpt lat="44.05373" lon="6.25405">
        <ele>1170</ele>
        <time>2011-08-18T07:02:49Z</time>
      </trkpt>
      <trkpt lat="44.05354" lon="6.25418">
        <ele>1148</ele>
        <time>2011-08-18T07:02:58Z</time>
      </trkpt>
      <trkpt lat="44.05318" lon="6.25436">
        <ele>1144</ele>
        <time>2011-08-18T07:03:12Z</time>
      </trkpt>
      <trkpt lat="44.05305" lon="6.25431">
        <ele>1143</ele>
        <time>2011-08-18T07:03:22Z</time>
      </trkpt>
      <trkpt lat="44.05303" lon="6.25431">
        <ele>1143</ele>
        <time>2011-08-18T07:03:25Z</time>
      </trkpt>
      <trkpt lat="44.05297" lon="6.25432">
        <ele>1143</ele>
        <time>2011-08-18T07:03:39Z</time>
      </trkpt>
      <trkpt lat="44.05284" lon="6.25441">
        <ele>1141</ele>
        <time>2011-08-18T07:03:52Z</time>
      </trkpt>
      <trkpt lat="44.05245" lon="6.25455">
        <ele>1137</ele>
        <time>2011-08-18T07:04:07Z</time>
      </trkpt>
      <trkpt lat="44.05236" lon="6.25462">
        <ele>1134</ele>
        <time>2011-08-18T07:04:11Z</time>
      </trkpt>
      <trkpt lat="44.05221" lon="6.25472">
        <ele>1132</ele>
        <time>2011-08-18T07:04:19Z</time>
      </trkpt>
      <trkpt lat="44.05197" lon="6.25497">
        <ele>1127</ele>
        <time>2011-08-18T07:04:30Z</time>
      </trkpt>
      <trkpt lat="44.0519" lon="6.255">
        <ele>1106</ele>
        <time>2011-08-18T07:04:33Z</time>
      </trkpt>
      <trkpt lat="44.05155" lon="6.25524">
        <ele>1104</ele>
        <time>2011-08-18T07:04:46Z</time>
      </trkpt>
      <trkpt lat="44.05119" lon="6.25544">
        <ele>1097</ele>
        <time>2011-08-18T07:04:58Z</time>
      </trkpt>
      <trkpt lat="44.05079" lon="6.25563">
        <ele>1090</ele>
        <time>2011-08-18T07:05:10Z</time>
      </trkpt>
      <trkpt lat="44.05042" lon="6.25582">
        <ele>1091</ele>
        <time>2011-08-18T07:05:21Z</time>
      </trkpt>
      <trkpt lat="44.05009" lon="6.25607">
        <ele>1071</ele>
        <time>2011-08-18T07:05:32Z</time>
      </trkpt>
      <trkpt lat="44.04999" lon="6.25613">
        <ele>1072</ele>
        <time>2011-08-18T07:05:34Z</time>
      </trkpt>
      <trkpt lat="44.0498" lon="6.25623">
        <ele>1070</ele>
        <time>2011-08-18T07:05:39Z</time>
      </trkpt>
      <trkpt lat="44.0495" lon="6.2566">
        <ele>1067</ele>
        <time>2011-08-18T07:05:49Z</time>
      </trkpt>
      <trkpt lat="44.04941" lon="6.2567">
        <ele>1057</ele>
        <time>2011-08-18T07:05:53Z</time>
      </trkpt>
      <trkpt lat="44.04919" lon="6.25716">
        <ele>1053</ele>
        <time>2011-08-18T07:06:03Z</time>
      </trkpt>
      <trkpt lat="44.04862" lon="6.25772">
        <ele>1050</ele>
        <time>2011-08-18T07:06:18Z</time>
      </trkpt>
      <trkpt lat="44.04846" lon="6.25788">
        <ele>1049</ele>
        <time>2011-08-18T07:06:23Z</time>
      </trkpt>
      <trkpt lat="44.04834" lon="6.25794">
        <ele>1049</ele>
        <time>2011-08-18T07:06:26Z</time>
      </trkpt>
      <trkpt lat="44.04827" lon="6.25814">
        <ele>1052</ele>
        <time>2011-08-18T07:06:31Z</time>
      </trkpt>
      <trkpt lat="44.04831" lon="6.25833">
        <ele>1045</ele>
        <time>2011-08-18T07:06:35Z</time>
      </trkpt>
      <trkpt lat="44.04827" lon="6.25859">
        <ele>1041</ele>
        <time>2011-08-18T07:06:39Z</time>
      </trkpt>
      <trkpt lat="44.04809" lon="6.25919">
        <ele>1026</ele>
        <time>2011-08-18T07:06:50Z</time>
      </trkpt>
      <trkpt lat="44.04797" lon="6.25933">
        <ele>1026</ele>
        <time>2011-08-18T07:06:53Z</time>
      </trkpt>
      <trkpt lat="44.04784" lon="6.25952">
        <ele>1025</ele>
        <time>2011-08-18T07:06:56Z</time>
      </trkpt>
      <trkpt lat="44.04752" lon="6.25969">
        <ele>1024</ele>
        <time>2011-08-18T07:07:01Z</time>
      </trkpt>
      <trkpt lat="44.04717" lon="6.25971">
        <ele>1028</ele>
        <time>2011-08-18T07:07:07Z</time>
      </trkpt>
      <trkpt lat="44.04701" lon="6.25989">
        <ele>1027</ele>
        <time>2011-08-18T07:07:12Z</time>
      </trkpt>
      <trkpt lat="44.04701" lon="6.26002">
        <ele>1015</ele>
        <time>2011-08-18T07:07:14Z</time>
      </trkpt>
      <trkpt lat="44.04681" lon="6.26037">
        <ele>1012</ele>
        <time>2011-08-18T07:07:21Z</time>
      </trkpt>
      <trkpt lat="44.04627" lon="6.26049">
        <ele>1013</ele>
        <time>2011-08-18T07:07:32Z</time>
      </trkpt>
      <trkpt lat="44.04598" lon="6.26045">
        <ele>1014</ele>
        <time>2011-08-18T07:07:38Z</time>
      </trkpt>
      <trkpt lat="44.0459" lon="6.26042">
        <ele>1014</ele>
        <time>2011-08-18T07:07:40Z</time>
      </trkpt>
      <trkpt lat="44.04583" lon="6.26056">
        <ele>1018</ele>
        <time>2011-08-18T07:07:48Z</time>
      </trkpt>
      <trkpt lat="44.04593" lon="6.26073">
        <ele>1010</ele>
        <time>2011-08-18T07:07:59Z</time>
      </trkpt>
      <trkpt lat="44.04615" lon="6.26102">
        <ele>999</ele>
        <time>2011-08-18T07:08:07Z</time>
      </trkpt>
      <trkpt lat="44.04633" lon="6.26159">
        <ele>993</ele>
        <time>2011-08-18T07:08:17Z</time>
      </trkpt>
      <trkpt lat="44.04629" lon="6.26168">
        <ele>983</ele>
        <time>2011-08-18T07:08:28Z</time>
      </trkpt>
      <trkpt lat="44.04617" lon="6.26197">
        <ele>982</ele>
        <time>2011-08-18T07:08:39Z</time>
      </trkpt>
      <trkpt lat="44.04613" lon="6.26246">
        <ele>978</ele>
        <time>2011-08-18T07:08:49Z</time>
      </trkpt>
      <trkpt lat="44.0461" lon="6.26263">
        <ele>969</ele>
        <time>2011-08-18T07:08:52Z</time>
      </trkpt>
      <trkpt lat="44.04601" lon="6.26295">
        <ele>967</ele>
        <time>2011-08-18T07:09:00Z</time>
      </trkpt>
      <trkpt lat="44.04594" lon="6.26303">
        <ele>966</ele>
        <time>2011-08-18T07:09:04Z</time>
      </trkpt>
      <trkpt lat="44.04587" lon="6.26309">
        <ele>966</ele>
        <time>2011-08-18T07:09:06Z</time>
      </trkpt>
      <trkpt lat="44.04584" lon="6.26334">
        <ele>965</ele>
        <time>2011-08-18T07:09:11Z</time>
      </trkpt>
      <trkpt lat="44.04587" lon="6.26347">
        <ele>961</ele>
        <time>2011-08-18T07:09:13Z</time>
      </trkpt>
      <trkpt lat="44.04581" lon="6.26407">
        <ele>965</ele>
        <time>2011-08-18T07:09:22Z</time>
      </trkpt>
      <trkpt lat="44.04573" lon="6.26443">
        <ele>965</ele>
        <time>2011-08-18T07:09:28Z</time>
      </trkpt>
      <trkpt lat="44.0456" lon="6.26523">
        <ele>964</ele>
        <time>2011-08-18T07:09:44Z</time>
      </trkpt>
      <trkpt lat="44.04566" lon="6.26573">
        <ele>965</ele>
        <time>2011-08-18T07:09:59Z</time>
      </trkpt>
      <trkpt lat="44.0455" lon="6.26582">
        <ele>965</ele>
        <time>2011-08-18T07:10:10Z</time>
      </trkpt>
      <trkpt lat="44.04551" lon="6.2658">
        <ele>965</ele>
        <time>2011-08-18T07:10:15Z</time>
      </trkpt>
      <trkpt lat="44.04555" lon="6.26576">
        <ele>965</ele>
        <time>2011-08-18T07:10:33Z</time>
      </trkpt>
      <trkpt lat="44.04556" lon="6.26577">
        <ele>965</ele>
        <time>2011-08-18T07:16:33Z</time>
      </trkpt>
      <trkpt lat="44.04555" lon="6.26578">
        <ele>965</ele>
        <time>2011-08-18T07:16:39Z</time>
      </trkpt>
      <trkpt lat="44.04508" lon="6.26594">
        <ele>962</ele>
        <time>2011-08-18T07:16:51Z</time>
      </trkpt>
      <trkpt lat="44.04473" lon="6.26607">
        <ele>966</ele>
        <time>2011-08-18T07:16:59Z</time>
      </trkpt>
      <trkpt lat="44.0446" lon="6.26621">
        <ele>966</ele>
        <time>2011-08-18T07:17:03Z</time>
      </trkpt>
      <trkpt lat="44.04432" lon="6.26673">
        <ele>963</ele>
        <time>2011-08-18T07:17:16Z</time>
      </trkpt>
      <trkpt lat="44.04409" lon="6.2673">
        <ele>968</ele>
        <time>2011-08-18T07:17:31Z</time>
      </trkpt>
      <trkpt lat="44.04379" lon="6.26771">
        <ele>967</ele>
        <time>2011-08-18T07:17:44Z</time>
      </trkpt>
      <trkpt lat="44.04351" lon="6.26811">
        <ele>969</ele>
        <time>2011-08-18T07:18:04Z</time>
      </trkpt>
      <trkpt lat="44.04335" lon="6.26837">
        <ele>972</ele>
        <time>2011-08-18T07:18:16Z</time>
      </trkpt>
      <trkpt lat="44.04327" lon="6.26881">
        <ele>976</ele>
        <time>2011-08-18T07:18:26Z</time>
      </trkpt>
      <trkpt lat="44.04323" lon="6.26905">
        <ele>973</ele>
        <time>2011-08-18T07:18:32Z</time>
      </trkpt>
      <trkpt lat="44.04328" lon="6.26922">
        <ele>967</ele>
        <time>2011-08-18T07:18:35Z</time>
      </trkpt>
      <trkpt lat="44.04329" lon="6.26936">
        <ele>968</ele>
        <time>2011-08-18T07:18:37Z</time>
      </trkpt>
      <trkpt lat="44.04325" lon="6.26972">
        <ele>966</ele>
        <time>2011-08-18T07:18:42Z</time>
      </trkpt>
      <trkpt lat="44.04297" lon="6.27029">
        <ele>963</ele>
        <time>2011-08-18T07:18:55Z</time>
      </trkpt>
      <trkpt lat="44.04273" lon="6.2707">
        <ele>965</ele>
        <time>2011-08-18T07:19:06Z</time>
      </trkpt>
      <trkpt lat="44.04264" lon="6.27099">
        <ele>965</ele>
        <time>2011-08-18T07:19:18Z</time>
      </trkpt>
      <trkpt lat="44.04261" lon="6.27105">
        <ele>964</ele>
        <time>2011-08-18T07:19:21Z</time>
      </trkpt>
      <trkpt lat="44.04266" lon="6.27148">
        <ele>963</ele>
        <time>2011-08-18T07:19:31Z</time>
      </trkpt>
      <trkpt lat="44.04265" lon="6.27163">
        <ele>964</ele>
        <time>2011-08-18T07:19:34Z</time>
      </trkpt>
      <trkpt lat="44.04272" lon="6.2717">
        <ele>966</ele>
        <time>2011-08-18T07:19:39Z</time>
      </trkpt>
      <trkpt lat="44.04276" lon="6.27172">
        <ele>966</ele>
        <time>2011-08-18T07:19:41Z</time>
      </trkpt>
      <trkpt lat="44.04278" lon="6.27179">
        <ele>966</ele>
        <time>2011-08-18T07:19:52Z</time>
      </trkpt>
      <trkpt lat="44.04272" lon="6.27189">
        <ele>967</ele>
        <time>2011-08-18T07:20:04Z</time>
      </trkpt>
      <trkpt lat="44.04264" lon="6.27197">
        <ele>968</ele>
        <time>2011-08-18T07:20:20Z</time>
      </trkpt>
      <trkpt lat="44.04246" lon="6.2721">
        <ele>974</ele>
        <time>2011-08-18T07:20:42Z</time>
      </trkpt>
      <trkpt lat="44.04236" lon="6.27221">
        <ele>975</ele>
        <time>2011-08-18T07:20:59Z</time>
      </trkpt>
      <trkpt lat="44.04223" lon="6.27228">
        <ele>976</ele>
        <time>2011-08-18T07:21:17Z</time>
      </trkpt>
      <trkpt lat="44.04228" lon="6.27234">
        <ele>976</ele>
        <time>2011-08-18T07:21:32Z</time>
      </trkpt>
      <trkpt lat="44.04241" lon="6.27242">
        <ele>976</ele>
        <time>2011-08-18T07:21:49Z</time>
      </trkpt>
      <trkpt lat="44.04242" lon="6.27255">
        <ele>978</ele>
        <time>2011-08-18T07:22:03Z</time>
      </trkpt>
      <trkpt lat="44.04238" lon="6.27269">
        <ele>980</ele>
        <time>2011-08-18T07:22:16Z</time>
      </trkpt>
      <trkpt lat="44.04235" lon="6.27302">
        <ele>983</ele>
        <time>2011-08-18T07:22:39Z</time>
      </trkpt>
      <trkpt lat="44.04231" lon="6.27318">
        <ele>984</ele>
        <time>2011-08-18T07:22:56Z</time>
      </trkpt>
      <trkpt lat="44.04229" lon="6.27336">
        <ele>988</ele>
        <time>2011-08-18T07:23:10Z</time>
      </trkpt>
      <trkpt lat="44.04221" lon="6.27387">
        <ele>990</ele>
        <time>2011-08-18T07:23:33Z</time>
      </trkpt>
      <trkpt lat="44.04218" lon="6.27433">
        <ele>991</ele>
        <time>2011-08-18T07:23:51Z</time>
      </trkpt>
      <trkpt lat="44.04215" lon="6.27441">
        <ele>992</ele>
        <time>2011-08-18T07:23:54Z</time>
      </trkpt>
      <trkpt lat="44.04214" lon="6.27478">
        <ele>991</ele>
        <time>2011-08-18T07:24:09Z</time>
      </trkpt>
      <trkpt lat="44.04212" lon="6.27512">
        <ele>990</ele>
        <time>2011-08-18T07:24:18Z</time>
      </trkpt>
      <trkpt lat="44.04199" lon="6.27548">
        <ele>990</ele>
        <time>2011-08-18T07:24:29Z</time>
      </trkpt>
      <trkpt lat="44.04181" lon="6.27597">
        <ele>988</ele>
        <time>2011-08-18T07:24:45Z</time>
      </trkpt>
      <trkpt lat="44.04179" lon="6.27602">
        <ele>988</ele>
        <time>2011-08-18T07:24:46Z</time>
      </trkpt>
      <trkpt lat="44.04168" lon="6.27634">
        <ele>984</ele>
        <time>2011-08-18T07:24:51Z</time>
      </trkpt>
      <trkpt lat="44.04149" lon="6.27686">
        <ele>986</ele>
        <time>2011-08-18T07:25:01Z</time>
      </trkpt>
      <trkpt lat="44.04142" lon="6.27699">
        <ele>987</ele>
        <time>2011-08-18T07:25:04Z</time>
      </trkpt>
      <trkpt lat="44.04111" lon="6.27725">
        <ele>989</ele>
        <time>2011-08-18T07:25:19Z</time>
      </trkpt>
      <trkpt lat="44.04071" lon="6.27761">
        <ele>992</ele>
        <time>2011-08-18T07:25:37Z</time>
      </trkpt>
      <trkpt lat="44.04063" lon="6.27769">
        <ele>993</ele>
        <time>2011-08-18T07:25:51Z</time>
      </trkpt>
      <trkpt lat="44.04063" lon="6.2777">
        <ele>993</ele>
        <time>2011-08-18T07:25:52Z</time>
      </trkpt>
      <trkpt lat="44.04033" lon="6.27794">
        <ele>995</ele>
        <time>2011-08-18T07:26:09Z</time>
      </trkpt>
      <trkpt lat="44.04003" lon="6.27824">
        <ele>996</ele>
        <time>2011-08-18T07:26:27Z</time>
      </trkpt>
      <trkpt lat="44.03985" lon="6.27853">
        <ele>998</ele>
        <time>2011-08-18T07:26:44Z</time>
      </trkpt>
      <trkpt lat="44.03965" lon="6.2787">
        <ele>998</ele>
        <time>2011-08-18T07:26:58Z</time>
      </trkpt>
      <trkpt lat="44.03939" lon="6.27874">
        <ele>998</ele>
        <time>2011-08-18T07:27:10Z</time>
      </trkpt>
      <trkpt lat="44.03897" lon="6.27884">
        <ele>996</ele>
        <time>2011-08-18T07:27:22Z</time>
      </trkpt>
      <trkpt lat="44.03873" lon="6.27896">
        <ele>995</ele>
        <time>2011-08-18T07:27:29Z</time>
      </trkpt>
      <trkpt lat="44.03859" lon="6.27903">
        <ele>994</ele>
        <time>2011-08-18T07:27:32Z</time>
      </trkpt>
      <trkpt lat="44.03813" lon="6.2792">
        <ele>991</ele>
        <time>2011-08-18T07:27:41Z</time>
      </trkpt>
      <trkpt lat="44.03796" lon="6.27928">
        <ele>991</ele>
        <time>2011-08-18T07:27:44Z</time>
      </trkpt>
      <trkpt lat="44.0376" lon="6.27946">
        <ele>990</ele>
        <time>2011-08-18T07:27:55Z</time>
      </trkpt>
      <trkpt lat="44.03712" lon="6.27994">
        <ele>987</ele>
        <time>2011-08-18T07:28:15Z</time>
      </trkpt>
      <trkpt lat="44.0366" lon="6.28047">
        <ele>990</ele>
        <time>2011-08-18T07:28:30Z</time>
      </trkpt>
      <trkpt lat="44.03619" lon="6.28087">
        <ele>993</ele>
        <time>2011-08-18T07:28:40Z</time>
      </trkpt>
      <trkpt lat="44.0361" lon="6.28091">
        <ele>993</ele>
        <time>2011-08-18T07:28:48Z</time>
      </trkpt>
      <trkpt lat="44.03599" lon="6.28096">
        <ele>994</ele>
        <time>2011-08-18T07:28:52Z</time>
      </trkpt>
      <trkpt lat="44.03593" lon="6.28105">
        <ele>994</ele>
        <time>2011-08-18T07:28:56Z</time>
      </trkpt>
      <trkpt lat="44.03568" lon="6.28139">
        <ele>998</ele>
        <time>2011-08-18T07:29:09Z</time>
      </trkpt>
      <trkpt lat="44.03539" lon="6.28152">
        <ele>999</ele>
        <time>2011-08-18T07:29:20Z</time>
      </trkpt>
      <trkpt lat="44.03514" lon="6.28169">
        <ele>1001</ele>
        <time>2011-08-18T07:29:35Z</time>
      </trkpt>
      <trkpt lat="44.035" lon="6.28171">
        <ele>1001</ele>
        <time>2011-08-18T07:29:42Z</time>
      </trkpt>
      <trkpt lat="44.03492" lon="6.28175">
        <ele>1003</ele>
        <time>2011-08-18T07:29:46Z</time>
      </trkpt>
      <trkpt lat="44.03483" lon="6.28187">
        <ele>1005</ele>
        <time>2011-08-18T07:29:54Z</time>
      </trkpt>
      <trkpt lat="44.03454" lon="6.28213">
        <ele>1007</ele>
        <time>2011-08-18T07:30:11Z</time>
      </trkpt>
      <trkpt lat="44.03432" lon="6.2824">
        <ele>1008</ele>
        <time>2011-08-18T07:30:29Z</time>
      </trkpt>
      <trkpt lat="44.03428" lon="6.28245">
        <ele>1008</ele>
        <time>2011-08-18T07:30:32Z</time>
      </trkpt>
      <trkpt lat="44.03428" lon="6.2825">
        <ele>1011</ele>
        <time>2011-08-18T07:30:34Z</time>
      </trkpt>
      <trkpt lat="44.03421" lon="6.28256">
        <ele>1010</ele>
        <time>2011-08-18T07:30:38Z</time>
      </trkpt>
      <trkpt lat="44.03415" lon="6.28256">
        <ele>1011</ele>
        <time>2011-08-18T07:30:41Z</time>
      </trkpt>
      <trkpt lat="44.03398" lon="6.28259">
        <ele>1014</ele>
        <time>2011-08-18T07:30:50Z</time>
      </trkpt>
      <trkpt lat="44.03368" lon="6.28275">
        <ele>1017</ele>
        <time>2011-08-18T07:31:10Z</time>
      </trkpt>
      <trkpt lat="44.03351" lon="6.28276">
        <ele>1018</ele>
        <time>2011-08-18T07:31:21Z</time>
      </trkpt>
      <trkpt lat="44.03341" lon="6.28278">
        <ele>1018</ele>
        <time>2011-08-18T07:31:27Z</time>
      </trkpt>
      <trkpt lat="44.03316" lon="6.28289">
        <ele>1022</ele>
        <time>2011-08-18T07:31:44Z</time>
      </trkpt>
      <trkpt lat="44.03295" lon="6.28301">
        <ele>1022</ele>
        <time>2011-08-18T07:31:57Z</time>
      </trkpt>
      <trkpt lat="44.03275" lon="6.28322">
        <ele>1022</ele>
        <time>2011-08-18T07:32:12Z</time>
      </trkpt>
      <trkpt lat="44.03236" lon="6.28354">
        <ele>1022</ele>
        <time>2011-08-18T07:32:31Z</time>
      </trkpt>
      <trkpt lat="44.03231" lon="6.28358">
        <ele>1022</ele>
        <time>2011-08-18T07:32:33Z</time>
      </trkpt>
      <trkpt lat="44.03193" lon="6.28386">
        <ele>1022</ele>
        <time>2011-08-18T07:32:46Z</time>
      </trkpt>
      <trkpt lat="44.03155" lon="6.28415">
        <ele>1019</ele>
        <time>2011-08-18T07:32:58Z</time>
      </trkpt>
      <trkpt lat="44.03134" lon="6.28447">
        <ele>1020</ele>
        <time>2011-08-18T07:33:03Z</time>
      </trkpt>
      <trkpt lat="44.03103" lon="6.28473">
        <ele>1019</ele>
        <time>2011-08-18T07:33:12Z</time>
      </trkpt>
      <trkpt lat="44.03097" lon="6.28482">
        <ele>1019</ele>
        <time>2011-08-18T07:33:16Z</time>
      </trkpt>
      <trkpt lat="44.03097" lon="6.28497">
        <ele>1018</ele>
        <time>2011-08-18T07:33:20Z</time>
      </trkpt>
      <trkpt lat="44.03098" lon="6.28515">
        <ele>1023</ele>
        <time>2011-08-18T07:33:23Z</time>
      </trkpt>
      <trkpt lat="44.031" lon="6.28532">
        <ele>1026</ele>
        <time>2011-08-18T07:33:26Z</time>
      </trkpt>
      <trkpt lat="44.03093" lon="6.28542">
        <ele>1026</ele>
        <time>2011-08-18T07:33:30Z</time>
      </trkpt>
      <trkpt lat="44.03064" lon="6.28543">
        <ele>1018</ele>
        <time>2011-08-18T07:33:43Z</time>
      </trkpt>
      <trkpt lat="44.03058" lon="6.28547">
        <ele>1017</ele>
        <time>2011-08-18T07:33:46Z</time>
      </trkpt>
      <trkpt lat="44.03037" lon="6.2859">
        <ele>1024</ele>
        <time>2011-08-18T07:33:58Z</time>
      </trkpt>
      <trkpt lat="44.03018" lon="6.28601">
        <ele>1023</ele>
        <time>2011-08-18T07:34:06Z</time>
      </trkpt>
      <trkpt lat="44.03012" lon="6.28605">
        <ele>1023</ele>
        <time>2011-08-18T07:34:09Z</time>
      </trkpt>
      <trkpt lat="44.02984" lon="6.28625">
        <ele>1022</ele>
        <time>2011-08-18T07:34:23Z</time>
      </trkpt>
      <trkpt lat="44.02951" lon="6.28646">
        <ele>1023</ele>
        <time>2011-08-18T07:34:38Z</time>
      </trkpt>
      <trkpt lat="44.02939" lon="6.28657">
        <ele>1023</ele>
        <time>2011-08-18T07:34:44Z</time>
      </trkpt>
      <trkpt lat="44.02911" lon="6.28667">
        <ele>1027</ele>
        <time>2011-08-18T07:34:57Z</time>
      </trkpt>
      <trkpt lat="44.02908" lon="6.2867">
        <ele>1028</ele>
        <time>2011-08-18T07:34:59Z</time>
      </trkpt>
      <trkpt lat="44.0289" lon="6.28685">
        <ele>1032</ele>
        <time>2011-08-18T07:35:14Z</time>
      </trkpt>
      <trkpt lat="44.02865" lon="6.28699">
        <ele>1034</ele>
        <time>2011-08-18T07:35:29Z</time>
      </trkpt>
      <trkpt lat="44.0286" lon="6.28706">
        <ele>1035</ele>
        <time>2011-08-18T07:35:33Z</time>
      </trkpt>
      <trkpt lat="44.02843" lon="6.28734">
        <ele>1038</ele>
        <time>2011-08-18T07:35:49Z</time>
      </trkpt>
      <trkpt lat="44.02827" lon="6.28744">
        <ele>1038</ele>
        <time>2011-08-18T07:35:59Z</time>
      </trkpt>
      <trkpt lat="44.02812" lon="6.28757">
        <ele>1042</ele>
        <time>2011-08-18T07:36:09Z</time>
      </trkpt>
      <trkpt lat="44.02802" lon="6.2878">
        <ele>1044</ele>
        <time>2011-08-18T07:36:20Z</time>
      </trkpt>
      <trkpt lat="44.02796" lon="6.28788">
        <ele>1044</ele>
        <time>2011-08-18T07:36:25Z</time>
      </trkpt>
      <trkpt lat="44.02783" lon="6.28802">
        <ele>1045</ele>
        <time>2011-08-18T07:36:36Z</time>
      </trkpt>
      <trkpt lat="44.02763" lon="6.28828">
        <ele>1046</ele>
        <time>2011-08-18T07:36:52Z</time>
      </trkpt>
      <trkpt lat="44.02733" lon="6.28846">
        <ele>1048</ele>
        <time>2011-08-18T07:37:10Z</time>
      </trkpt>
      <trkpt lat="44.02702" lon="6.28877">
        <ele>1049</ele>
        <time>2011-08-18T07:37:28Z</time>
      </trkpt>
      <trkpt lat="44.02674" lon="6.28928">
        <ele>1055</ele>
        <time>2011-08-18T07:37:50Z</time>
      </trkpt>
      <trkpt lat="44.0266" lon="6.28988">
        <ele>1056</ele>
        <time>2011-08-18T07:38:12Z</time>
      </trkpt>
      <trkpt lat="44.02663" lon="6.29061">
        <ele>1064</ele>
        <time>2011-08-18T07:38:38Z</time>
      </trkpt>
      <trkpt lat="44.02653" lon="6.29106">
        <ele>1071</ele>
        <time>2011-08-18T07:38:56Z</time>
      </trkpt>
      <trkpt lat="44.02635" lon="6.29159">
        <ele>1074</ele>
        <time>2011-08-18T07:39:19Z</time>
      </trkpt>
      <trkpt lat="44.02617" lon="6.29207">
        <ele>1081</ele>
        <time>2011-08-18T07:39:40Z</time>
      </trkpt>
      <trkpt lat="44.02601" lon="6.29263">
        <ele>1085</ele>
        <time>2011-08-18T07:40:04Z</time>
      </trkpt>
      <trkpt lat="44.02602" lon="6.29321">
        <ele>1088</ele>
        <time>2011-08-18T07:40:27Z</time>
      </trkpt>
      <trkpt lat="44.02621" lon="6.29376">
        <ele>1096</ele>
        <time>2011-08-18T07:40:51Z</time>
      </trkpt>
      <trkpt lat="44.02648" lon="6.29425">
        <ele>1103</ele>
        <time>2011-08-18T07:41:15Z</time>
      </trkpt>
      <trkpt lat="44.0263" lon="6.29461">
        <ele>1103</ele>
        <time>2011-08-18T07:41:31Z</time>
      </trkpt>
      <trkpt lat="44.02625" lon="6.29484">
        <ele>1105</ele>
        <time>2011-08-18T07:41:42Z</time>
      </trkpt>
      <trkpt lat="44.02615" lon="6.29523">
        <ele>1110</ele>
        <time>2011-08-18T07:41:58Z</time>
      </trkpt>
      <trkpt lat="44.02591" lon="6.29583">
        <ele>1111</ele>
        <time>2011-08-18T07:42:22Z</time>
      </trkpt>
      <trkpt lat="44.02561" lon="6.29619">
        <ele>1110</ele>
        <time>2011-08-18T07:42:41Z</time>
      </trkpt>
      <trkpt lat="44.0256" lon="6.29622">
        <ele>1110</ele>
        <time>2011-08-18T07:42:42Z</time>
      </trkpt>
      <trkpt lat="44.02574" lon="6.29655">
        <ele>1104</ele>
        <time>2011-08-18T07:42:51Z</time>
      </trkpt>
      <trkpt lat="44.02627" lon="6.29666">
        <ele>1103</ele>
        <time>2011-08-18T07:42:59Z</time>
      </trkpt>
      <trkpt lat="44.02668" lon="6.2966">
        <ele>1099</ele>
        <time>2011-08-18T07:43:04Z</time>
      </trkpt>
      <trkpt lat="44.02788" lon="6.29663">
        <ele>1095</ele>
        <time>2011-08-18T07:43:17Z</time>
      </trkpt>
      <trkpt lat="44.02884" lon="6.29672">
        <ele>1075</ele>
        <time>2011-08-18T07:43:27Z</time>
      </trkpt>
      <trkpt lat="44.02906" lon="6.29673">
        <ele>1075</ele>
        <time>2011-08-18T07:43:30Z</time>
      </trkpt>
      <trkpt lat="44.02934" lon="6.2971">
        <ele>1070</ele>
        <time>2011-08-18T07:43:38Z</time>
      </trkpt>
      <trkpt lat="44.02934" lon="6.29715">
        <ele>1070</ele>
        <time>2011-08-18T07:43:39Z</time>
      </trkpt>
      <trkpt lat="44.02934" lon="6.29724">
        <ele>1070</ele>
        <time>2011-08-18T07:43:41Z</time>
      </trkpt>
      <trkpt lat="44.02948" lon="6.29732">
        <ele>1069</ele>
        <time>2011-08-18T07:43:48Z</time>
      </trkpt>
      <trkpt lat="44.02978" lon="6.29716">
        <ele>1069</ele>
        <time>2011-08-18T07:43:54Z</time>
      </trkpt>
      <trkpt lat="44.03014" lon="6.29712">
        <ele>1063</ele>
        <time>2011-08-18T07:44:02Z</time>
      </trkpt>
      <trkpt lat="44.03017" lon="6.29715">
        <ele>1063</ele>
        <time>2011-08-18T07:44:49Z</time>
      </trkpt>
      <trkpt lat="44.0304" lon="6.29717">
        <ele>1061</ele>
        <time>2011-08-18T07:44:58Z</time>
      </trkpt>
      <trkpt lat="44.03044" lon="6.29715">
        <ele>1061</ele>
        <time>2011-08-18T07:45:00Z</time>
      </trkpt>
      <trkpt lat="44.03053" lon="6.29711">
        <ele>1060</ele>
        <time>2011-08-18T07:45:04Z</time>
      </trkpt>
      <trkpt lat="44.03076" lon="6.29713">
        <ele>1059</ele>
        <time>2011-08-18T07:45:12Z</time>
      </trkpt>
      <trkpt lat="44.03078" lon="6.29712">
        <ele>1059</ele>
        <time>2011-08-18T07:45:13Z</time>
      </trkpt>
      <trkpt lat="44.03095" lon="6.29712">
        <ele>1049</ele>
        <time>2011-08-18T07:45:22Z</time>
      </trkpt>
      <trkpt lat="44.03106" lon="6.29707">
        <ele>1048</ele>
        <time>2011-08-18T07:45:28Z</time>
      </trkpt>
      <trkpt lat="44.03126" lon="6.29709">
        <ele>1046</ele>
        <time>2011-08-18T07:45:37Z</time>
      </trkpt>
      <trkpt lat="44.03129" lon="6.29704">
        <ele>1046</ele>
        <time>2011-08-18T07:45:39Z</time>
      </trkpt>
      <trkpt lat="44.03142" lon="6.29691">
        <ele>1045</ele>
        <time>2011-08-18T07:45:48Z</time>
      </trkpt>
      <trkpt lat="44.03144" lon="6.29693">
        <ele>1044</ele>
        <time>2011-08-18T07:46:09Z</time>
      </trkpt>
      <trkpt lat="44.03163" lon="6.29701">
        <ele>1043</ele>
        <time>2011-08-18T07:46:21Z</time>
      </trkpt>
      <trkpt lat="44.0317" lon="6.29705">
        <ele>1035</ele>
        <time>2011-08-18T07:46:24Z</time>
      </trkpt>
      <trkpt lat="44.03201" lon="6.29707">
        <ele>1033</ele>
        <time>2011-08-18T07:46:32Z</time>
      </trkpt>
      <trkpt lat="44.03214" lon="6.29702">
        <ele>1033</ele>
        <time>2011-08-18T07:46:41Z</time>
      </trkpt>
      <trkpt lat="44.03215" lon="6.29703">
        <ele>1033</ele>
        <time>2011-08-18T07:46:42Z</time>
      </trkpt>
      <trkpt lat="44.03224" lon="6.29714">
        <ele>1031</ele>
        <time>2011-08-18T07:46:49Z</time>
      </trkpt>
      <trkpt lat="44.03236" lon="6.2972">
        <ele>1030</ele>
        <time>2011-08-18T07:46:52Z</time>
      </trkpt>
      <trkpt lat="44.03266" lon="6.29719">
        <ele>1025</ele>
        <time>2011-08-18T07:47:00Z</time>
      </trkpt>
      <trkpt lat="44.03276" lon="6.29718">
        <ele>1025</ele>
        <time>2011-08-18T07:47:04Z</time>
      </trkpt>
      <trkpt lat="44.03289" lon="6.29708">
        <ele>1025</ele>
        <time>2011-08-18T07:47:13Z</time>
      </trkpt>
      <trkpt lat="44.0332" lon="6.2971">
        <ele>1023</ele>
        <time>2011-08-18T07:47:25Z</time>
      </trkpt>
      <trkpt lat="44.03337" lon="6.29708">
        <ele>1017</ele>
        <time>2011-08-18T07:47:30Z</time>
      </trkpt>
      <trkpt lat="44.03342" lon="6.29707">
        <ele>1017</ele>
        <time>2011-08-18T07:47:35Z</time>
      </trkpt>
      <trkpt lat="44.03359" lon="6.29704">
        <ele>1016</ele>
        <time>2011-08-18T07:47:42Z</time>
      </trkpt>
      <trkpt lat="44.03381" lon="6.29693">
        <ele>1015</ele>
        <time>2011-08-18T07:47:50Z</time>
      </trkpt>
      <trkpt lat="44.03386" lon="6.2969">
        <ele>1014</ele>
        <time>2011-08-18T07:47:52Z</time>
      </trkpt>
      <trkpt lat="44.03401" lon="6.29695">
        <ele>1013</ele>
        <time>2011-08-18T07:47:59Z</time>
      </trkpt>
      <trkpt lat="44.0341" lon="6.29716">
        <ele>1012</ele>
        <time>2011-08-18T07:48:11Z</time>
      </trkpt>
      <trkpt lat="44.03411" lon="6.29717">
        <ele>1012</ele>
        <time>2011-08-18T07:48:16Z</time>
      </trkpt>
      <trkpt lat="44.03406" lon="6.29724">
        <ele>1012</ele>
        <time>2011-08-18T07:48:27Z</time>
      </trkpt>
      <trkpt lat="44.03419" lon="6.29734">
        <ele>1007</ele>
        <time>2011-08-18T07:48:40Z</time>
      </trkpt>
      <trkpt lat="44.03432" lon="6.29737">
        <ele>1007</ele>
        <time>2011-08-18T07:48:51Z</time>
      </trkpt>
      <trkpt lat="44.03467" lon="6.29759">
        <ele>1009</ele>
        <time>2011-08-18T07:49:05Z</time>
      </trkpt>
      <trkpt lat="44.03477" lon="6.29762">
        <ele>1008</ele>
        <time>2011-08-18T07:49:08Z</time>
      </trkpt>
      <trkpt lat="44.03503" lon="6.29773">
        <ele>1006</ele>
        <time>2011-08-18T07:49:17Z</time>
      </trkpt>
      <trkpt lat="44.0351" lon="6.29778">
        <ele>1006</ele>
        <time>2011-08-18T07:49:20Z</time>
      </trkpt>
      <trkpt lat="44.03524" lon="6.29781">
        <ele>1006</ele>
        <time>2011-08-18T07:49:25Z</time>
      </trkpt>
      <trkpt lat="44.03551" lon="6.29788">
        <ele>1006</ele>
        <time>2011-08-18T07:49:33Z</time>
      </trkpt>
      <trkpt lat="44.03599" lon="6.29813">
        <ele>1001</ele>
        <time>2011-08-18T07:49:45Z</time>
      </trkpt>
      <trkpt lat="44.03609" lon="6.29817">
        <ele>1001</ele>
        <time>2011-08-18T07:49:48Z</time>
      </trkpt>
      <trkpt lat="44.03649" lon="6.2985">
        <ele>1002</ele>
        <time>2011-08-18T07:49:58Z</time>
      </trkpt>
      <trkpt lat="44.03675" lon="6.29843">
        <ele>997</ele>
        <time>2011-08-18T07:50:06Z</time>
      </trkpt>
      <trkpt lat="44.03707" lon="6.29837">
        <ele>997</ele>
        <time>2011-08-18T07:50:13Z</time>
      </trkpt>
      <trkpt lat="44.03722" lon="6.29841">
        <ele>996</ele>
        <time>2011-08-18T07:50:17Z</time>
      </trkpt>
      <trkpt lat="44.03754" lon="6.29865">
        <ele>992</ele>
        <time>2011-08-18T07:50:27Z</time>
      </trkpt>
      <trkpt lat="44.03805" lon="6.29898">
        <ele>992</ele>
        <time>2011-08-18T07:50:48Z</time>
      </trkpt>
      <trkpt lat="44.03817" lon="6.29939">
        <ele>997</ele>
        <time>2011-08-18T07:51:03Z</time>
      </trkpt>
      <trkpt lat="44.03805" lon="6.29994">
        <ele>1000</ele>
        <time>2011-08-18T07:51:21Z</time>
      </trkpt>
      <trkpt lat="44.03826" lon="6.30053">
        <ele>1004</ele>
        <time>2011-08-18T07:51:40Z</time>
      </trkpt>
      <trkpt lat="44.03841" lon="6.30123">
        <ele>1001</ele>
        <time>2011-08-18T07:52:02Z</time>
      </trkpt>
      <trkpt lat="44.03853" lon="6.30177">
        <ele>1007</ele>
        <time>2011-08-18T07:52:15Z</time>
      </trkpt>
      <trkpt lat="44.03906" lon="6.30218">
        <ele>1007</ele>
        <time>2011-08-18T07:52:31Z</time>
      </trkpt>
      <trkpt lat="44.03918" lon="6.30234">
        <ele>1008</ele>
        <time>2011-08-18T07:52:35Z</time>
      </trkpt>
      <trkpt lat="44.03946" lon="6.30242">
        <ele>1008</ele>
        <time>2011-08-18T07:52:42Z</time>
      </trkpt>
      <trkpt lat="44.03971" lon="6.30223">
        <ele>1007</ele>
        <time>2011-08-18T07:52:48Z</time>
      </trkpt>
      <trkpt lat="44.03984" lon="6.30211">
        <ele>1007</ele>
        <time>2011-08-18T07:52:51Z</time>
      </trkpt>
      <trkpt lat="44.03996" lon="6.30193">
        <ele>1004</ele>
        <time>2011-08-18T07:52:55Z</time>
      </trkpt>
      <trkpt lat="44.04008" lon="6.3018">
        <ele>1003</ele>
        <time>2011-08-18T07:52:58Z</time>
      </trkpt>
      <trkpt lat="44.04031" lon="6.30175">
        <ele>1004</ele>
        <time>2011-08-18T07:53:03Z</time>
      </trkpt>
      <trkpt lat="44.04084" lon="6.30199">
        <ele>1005</ele>
        <time>2011-08-18T07:53:13Z</time>
      </trkpt>
      <trkpt lat="44.0411" lon="6.30213">
        <ele>1005</ele>
        <time>2011-08-18T07:53:18Z</time>
      </trkpt>
      <trkpt lat="44.0413" lon="6.3022">
        <ele>1006</ele>
        <time>2011-08-18T07:53:22Z</time>
      </trkpt>
      <trkpt lat="44.0416" lon="6.3022">
        <ele>1006</ele>
        <time>2011-08-18T07:53:28Z</time>
      </trkpt>
      <trkpt lat="44.042" lon="6.30199">
        <ele>1005</ele>
        <time>2011-08-18T07:53:39Z</time>
      </trkpt>
      <trkpt lat="44.04235" lon="6.30194">
        <ele>1004</ele>
        <time>2011-08-18T07:53:46Z</time>
      </trkpt>
      <trkpt lat="44.04272" lon="6.30192">
        <ele>1001</ele>
        <time>2011-08-18T07:53:54Z</time>
      </trkpt>
      <trkpt lat="44.04281" lon="6.3019">
        <ele>1001</ele>
        <time>2011-08-18T07:53:56Z</time>
      </trkpt>
      <trkpt lat="44.04321" lon="6.30201">
        <ele>999</ele>
        <time>2011-08-18T07:54:04Z</time>
      </trkpt>
      <trkpt lat="44.04344" lon="6.30214">
        <ele>987</ele>
        <time>2011-08-18T07:54:08Z</time>
      </trkpt>
      <trkpt lat="44.04345" lon="6.30248">
        <ele>992</ele>
        <time>2011-08-18T07:54:14Z</time>
      </trkpt>
      <trkpt lat="44.0434" lon="6.30272">
        <ele>988</ele>
        <time>2011-08-18T07:54:17Z</time>
      </trkpt>
      <trkpt lat="44.04341" lon="6.30327">
        <ele>992</ele>
        <time>2011-08-18T07:54:23Z</time>
      </trkpt>
      <trkpt lat="44.04336" lon="6.30436">
        <ele>980</ele>
        <time>2011-08-18T07:54:33Z</time>
      </trkpt>
      <trkpt lat="44.04334" lon="6.30447">
        <ele>978</ele>
        <time>2011-08-18T07:54:34Z</time>
      </trkpt>
      <trkpt lat="44.04326" lon="6.30525">
        <ele>993</ele>
        <time>2011-08-18T07:54:41Z</time>
      </trkpt>
      <trkpt lat="44.04324" lon="6.30559">
        <ele>991</ele>
        <time>2011-08-18T07:54:44Z</time>
      </trkpt>
      <trkpt lat="44.04311" lon="6.30603">
        <ele>987</ele>
        <time>2011-08-18T07:54:48Z</time>
      </trkpt>
      <trkpt lat="44.043" lon="6.30678">
        <ele>983</ele>
        <time>2011-08-18T07:54:55Z</time>
      </trkpt>
      <trkpt lat="44.04303" lon="6.30714">
        <ele>983</ele>
        <time>2011-08-18T07:54:58Z</time>
      </trkpt>
      <trkpt lat="44.04315" lon="6.30757">
        <ele>982</ele>
        <time>2011-08-18T07:55:03Z</time>
      </trkpt>
      <trkpt lat="44.04351" lon="6.30816">
        <ele>978</ele>
        <time>2011-08-18T07:55:14Z</time>
      </trkpt>
      <trkpt lat="44.04364" lon="6.30864">
        <ele>982</ele>
        <time>2011-08-18T07:55:22Z</time>
      </trkpt>
      <trkpt lat="44.04369" lon="6.30877">
        <ele>982</ele>
        <time>2011-08-18T07:55:24Z</time>
      </trkpt>
      <trkpt lat="44.04377" lon="6.30893">
        <ele>983</ele>
        <time>2011-08-18T07:55:27Z</time>
      </trkpt>
      <trkpt lat="44.04382" lon="6.30902">
        <ele>983</ele>
        <time>2011-08-18T07:55:29Z</time>
      </trkpt>
      <trkpt lat="44.04405" lon="6.30921">
        <ele>986</ele>
        <time>2011-08-18T07:55:35Z</time>
      </trkpt>
      <trkpt lat="44.04442" lon="6.30924">
        <ele>990</ele>
        <time>2011-08-18T07:55:44Z</time>
      </trkpt>
      <trkpt lat="44.04475" lon="6.30894">
        <ele>987</ele>
        <time>2011-08-18T07:55:57Z</time>
      </trkpt>
      <trkpt lat="44.04493" lon="6.30834">
        <ele>990</ele>
        <time>2011-08-18T07:56:17Z</time>
      </trkpt>
      <trkpt lat="44.04488" lon="6.30791">
        <ele>984</ele>
        <time>2011-08-18T07:56:34Z</time>
      </trkpt>
      <trkpt lat="44.04494" lon="6.30767">
        <ele>986</ele>
        <time>2011-08-18T07:56:45Z</time>
      </trkpt>
      <trkpt lat="44.04496" lon="6.3076">
        <ele>987</ele>
        <time>2011-08-18T07:56:48Z</time>
      </trkpt>
      <trkpt lat="44.04501" lon="6.30738">
        <ele>991</ele>
        <time>2011-08-18T07:56:58Z</time>
      </trkpt>
      <trkpt lat="44.04508" lon="6.30711">
        <ele>990</ele>
        <time>2011-08-18T07:57:15Z</time>
      </trkpt>
      <trkpt lat="44.04509" lon="6.30706">
        <ele>989</ele>
        <time>2011-08-18T07:57:25Z</time>
      </trkpt>
      <trkpt lat="44.04518" lon="6.30703">
        <ele>989</ele>
        <time>2011-08-18T07:57:46Z</time>
      </trkpt>
      <trkpt lat="44.04549" lon="6.3071">
        <ele>993</ele>
        <time>2011-08-18T07:58:02Z</time>
      </trkpt>
      <trkpt lat="44.04575" lon="6.30699">
        <ele>994</ele>
        <time>2011-08-18T07:58:16Z</time>
      </trkpt>
      <trkpt lat="44.04593" lon="6.30703">
        <ele>1006</ele>
        <time>2011-08-18T07:58:25Z</time>
      </trkpt>
      <trkpt lat="44.04618" lon="6.30708">
        <ele>1008</ele>
        <time>2011-08-18T07:58:37Z</time>
      </trkpt>
      <trkpt lat="44.04645" lon="6.30699">
        <ele>1010</ele>
        <time>2011-08-18T07:58:50Z</time>
      </trkpt>
      <trkpt lat="44.0468" lon="6.30679">
        <ele>1017</ele>
        <time>2011-08-18T07:59:08Z</time>
      </trkpt>
      <trkpt lat="44.04691" lon="6.30669">
        <ele>1018</ele>
        <time>2011-08-18T07:59:15Z</time>
      </trkpt>
      <trkpt lat="44.04698" lon="6.30652">
        <ele>1012</ele>
        <time>2011-08-18T07:59:23Z</time>
      </trkpt>
      <trkpt lat="44.04724" lon="6.30637">
        <ele>1015</ele>
        <time>2011-08-18T07:59:40Z</time>
      </trkpt>
      <trkpt lat="44.04746" lon="6.30624">
        <ele>1016</ele>
        <time>2011-08-18T07:59:54Z</time>
      </trkpt>
      <trkpt lat="44.04764" lon="6.30606">
        <ele>1024</ele>
        <time>2011-08-18T08:00:07Z</time>
      </trkpt>
      <trkpt lat="44.04777" lon="6.30595">
        <ele>1025</ele>
        <time>2011-08-18T08:00:16Z</time>
      </trkpt>
      <trkpt lat="44.048" lon="6.30576">
        <ele>1020</ele>
        <time>2011-08-18T08:00:30Z</time>
      </trkpt>
      <trkpt lat="44.0483" lon="6.30578">
        <ele>1026</ele>
        <time>2011-08-18T08:00:46Z</time>
      </trkpt>
      <trkpt lat="44.04836" lon="6.306">
        <ele>1026</ele>
        <time>2011-08-18T08:00:56Z</time>
      </trkpt>
      <trkpt lat="44.04819" lon="6.3064">
        <ele>1030</ele>
        <time>2011-08-18T08:01:14Z</time>
      </trkpt>
      <trkpt lat="44.04821" lon="6.30652">
        <ele>1031</ele>
        <time>2011-08-18T08:01:26Z</time>
      </trkpt>
      <trkpt lat="44.04823" lon="6.30653">
        <ele>1032</ele>
        <time>2011-08-18T08:03:13Z</time>
      </trkpt>
      <trkpt lat="44.04823" lon="6.30654">
        <ele>1032</ele>
        <time>2011-08-18T08:03:45Z</time>
      </trkpt>
      <trkpt lat="44.04829" lon="6.30666">
        <ele>1034</ele>
        <time>2011-08-18T08:03:51Z</time>
      </trkpt>
      <trkpt lat="44.04836" lon="6.30692">
        <ele>1034</ele>
        <time>2011-08-18T08:04:03Z</time>
      </trkpt>
      <trkpt lat="44.04846" lon="6.30722">
        <ele>1036</ele>
        <time>2011-08-18T08:04:14Z</time>
      </trkpt>
      <trkpt lat="44.04869" lon="6.30735">
        <ele>1034</ele>
        <time>2011-08-18T08:04:26Z</time>
      </trkpt>
      <trkpt lat="44.04873" lon="6.30737">
        <ele>1033</ele>
        <time>2011-08-18T08:04:28Z</time>
      </trkpt>
      <trkpt lat="44.04892" lon="6.30763">
        <ele>1036</ele>
        <time>2011-08-18T08:04:40Z</time>
      </trkpt>
      <trkpt lat="44.04895" lon="6.30768">
        <ele>1036</ele>
        <time>2011-08-18T08:04:42Z</time>
      </trkpt>
      <trkpt lat="44.04896" lon="6.30772">
        <ele>1037</ele>
        <time>2011-08-18T08:04:44Z</time>
      </trkpt>
      <trkpt lat="44.049" lon="6.30802">
        <ele>1038</ele>
        <time>2011-08-18T08:04:55Z</time>
      </trkpt>
      <trkpt lat="44.049" lon="6.30834">
        <ele>1041</ele>
        <time>2011-08-18T08:05:04Z</time>
      </trkpt>
      <trkpt lat="44.0489" lon="6.30859">
        <ele>1045</ele>
        <time>2011-08-18T08:05:13Z</time>
      </trkpt>
      <trkpt lat="44.04879" lon="6.309">
        <ele>1048</ele>
        <time>2011-08-18T08:05:26Z</time>
      </trkpt>
      <trkpt lat="44.04875" lon="6.30931">
        <ele>1054</ele>
        <time>2011-08-18T08:05:36Z</time>
      </trkpt>
      <trkpt lat="44.0487" lon="6.30947">
        <ele>1055</ele>
        <time>2011-08-18T08:05:42Z</time>
      </trkpt>
      <trkpt lat="44.04887" lon="6.30995">
        <ele>1055</ele>
        <time>2011-08-18T08:05:57Z</time>
      </trkpt>
      <trkpt lat="44.04896" lon="6.31006">
        <ele>1061</ele>
        <time>2011-08-18T08:06:01Z</time>
      </trkpt>
      <trkpt lat="44.04929" lon="6.31022">
        <ele>1055</ele>
        <time>2011-08-18T08:06:10Z</time>
      </trkpt>
      <trkpt lat="44.04967" lon="6.3101">
        <ele>1054</ele>
        <time>2011-08-18T08:06:21Z</time>
      </trkpt>
      <trkpt lat="44.0498" lon="6.31019">
        <ele>1054</ele>
        <time>2011-08-18T08:06:25Z</time>
      </trkpt>
      <trkpt lat="44.05005" lon="6.31017">
        <ele>1052</ele>
        <time>2011-08-18T08:06:34Z</time>
      </trkpt>
      <trkpt lat="44.05022" lon="6.30995">
        <ele>1043</ele>
        <time>2011-08-18T08:06:46Z</time>
      </trkpt>
      <trkpt lat="44.05057" lon="6.30991">
        <ele>1043</ele>
        <time>2011-08-18T08:06:58Z</time>
      </trkpt>
      <trkpt lat="44.05072" lon="6.3099">
        <ele>1044</ele>
        <time>2011-08-18T08:07:05Z</time>
      </trkpt>
      <trkpt lat="44.05099" lon="6.30998">
        <ele>1047</ele>
        <time>2011-08-18T08:07:15Z</time>
      </trkpt>
      <trkpt lat="44.05108" lon="6.31008">
        <ele>1059</ele>
        <time>2011-08-18T08:07:21Z</time>
      </trkpt>
      <trkpt lat="44.05112" lon="6.31013">
        <ele>1060</ele>
        <time>2011-08-18T08:07:28Z</time>
      </trkpt>
      <trkpt lat="44.05124" lon="6.31023">
        <ele>1062</ele>
        <time>2011-08-18T08:07:42Z</time>
      </trkpt>
      <trkpt lat="44.05136" lon="6.31023">
        <ele>1063</ele>
        <time>2011-08-18T08:07:56Z</time>
      </trkpt>
      <trkpt lat="44.05144" lon="6.31017">
        <ele>1062</ele>
        <time>2011-08-18T08:08:02Z</time>
      </trkpt>
      <trkpt lat="44.05152" lon="6.31006">
        <ele>1061</ele>
        <time>2011-08-18T08:08:10Z</time>
      </trkpt>
      <trkpt lat="44.05161" lon="6.30998">
        <ele>1055</ele>
        <time>2011-08-18T08:08:17Z</time>
      </trkpt>
      <trkpt lat="44.0517" lon="6.30992">
        <ele>1058</ele>
        <time>2011-08-18T08:08:24Z</time>
      </trkpt>
      <trkpt lat="44.05186" lon="6.30973">
        <ele>1059</ele>
        <time>2011-08-18T08:08:38Z</time>
      </trkpt>
      <trkpt lat="44.05207" lon="6.30939">
        <ele>1058</ele>
        <time>2011-08-18T08:09:00Z</time>
      </trkpt>
      <trkpt lat="44.05231" lon="6.30912">
        <ele>1053</ele>
        <time>2011-08-18T08:09:18Z</time>
      </trkpt>
      <trkpt lat="44.05249" lon="6.30882">
        <ele>1050</ele>
        <time>2011-08-18T08:09:31Z</time>
      </trkpt>
      <trkpt lat="44.05256" lon="6.30873">
        <ele>1056</ele>
        <time>2011-08-18T08:09:35Z</time>
      </trkpt>
      <trkpt lat="44.05266" lon="6.30881">
        <ele>1057</ele>
        <time>2011-08-18T08:09:43Z</time>
      </trkpt>
      <trkpt lat="44.05268" lon="6.30902">
        <ele>1059</ele>
        <time>2011-08-18T08:09:49Z</time>
      </trkpt>
      <trkpt lat="44.05309" lon="6.30953">
        <ele>1065</ele>
        <time>2011-08-18T08:10:04Z</time>
      </trkpt>
      <trkpt lat="44.05316" lon="6.30958">
        <ele>1064</ele>
        <time>2011-08-18T08:10:06Z</time>
      </trkpt>
      <trkpt lat="44.05333" lon="6.30982">
        <ele>1065</ele>
        <time>2011-08-18T08:10:12Z</time>
      </trkpt>
      <trkpt lat="44.05341" lon="6.31026">
        <ele>1060</ele>
        <time>2011-08-18T08:10:23Z</time>
      </trkpt>
      <trkpt lat="44.05344" lon="6.31062">
        <ele>1063</ele>
        <time>2011-08-18T08:10:32Z</time>
      </trkpt>
      <trkpt lat="44.05348" lon="6.3108">
        <ele>1065</ele>
        <time>2011-08-18T08:10:35Z</time>
      </trkpt>
      <trkpt lat="44.05353" lon="6.31092">
        <ele>1068</ele>
        <time>2011-08-18T08:10:37Z</time>
      </trkpt>
      <trkpt lat="44.05385" lon="6.31125">
        <ele>1065</ele>
        <time>2011-08-18T08:10:44Z</time>
      </trkpt>
      <trkpt lat="44.05409" lon="6.31135">
        <ele>1063</ele>
        <time>2011-08-18T08:10:49Z</time>
      </trkpt>
      <trkpt lat="44.05434" lon="6.31161">
        <ele>1058</ele>
        <time>2011-08-18T08:10:55Z</time>
      </trkpt>
      <trkpt lat="44.0545" lon="6.31179">
        <ele>1063</ele>
        <time>2011-08-18T08:11:01Z</time>
      </trkpt>
      <trkpt lat="44.05457" lon="6.31162">
        <ele>1056</ele>
        <time>2011-08-18T08:11:06Z</time>
      </trkpt>
      <trkpt lat="44.05469" lon="6.31139">
        <ele>1055</ele>
        <time>2011-08-18T08:11:12Z</time>
      </trkpt>
      <trkpt lat="44.05472" lon="6.31119">
        <ele>1054</ele>
        <time>2011-08-18T08:11:16Z</time>
      </trkpt>
      <trkpt lat="44.05475" lon="6.31087">
        <ele>1053</ele>
        <time>2011-08-18T08:11:22Z</time>
      </trkpt>
      <trkpt lat="44.05506" lon="6.31031">
        <ele>1041</ele>
        <time>2011-08-18T08:11:33Z</time>
      </trkpt>
      <trkpt lat="44.0553" lon="6.31035">
        <ele>1041</ele>
        <time>2011-08-18T08:11:40Z</time>
      </trkpt>
      <trkpt lat="44.05536" lon="6.31046">
        <ele>1042</ele>
        <time>2011-08-18T08:11:42Z</time>
      </trkpt>
      <trkpt lat="44.05542" lon="6.31069">
        <ele>1043</ele>
        <time>2011-08-18T08:11:46Z</time>
      </trkpt>
      <trkpt lat="44.05556" lon="6.31095">
        <ele>1048</ele>
        <time>2011-08-18T08:11:52Z</time>
      </trkpt>
      <trkpt lat="44.05573" lon="6.31093">
        <ele>1046</ele>
        <time>2011-08-18T08:11:56Z</time>
      </trkpt>
      <trkpt lat="44.0559" lon="6.31095">
        <ele>1045</ele>
        <time>2011-08-18T08:11:59Z</time>
      </trkpt>
      <trkpt lat="44.05607" lon="6.31076">
        <ele>1041</ele>
        <time>2011-08-18T08:12:03Z</time>
      </trkpt>
      <trkpt lat="44.05618" lon="6.31051">
        <ele>1040</ele>
        <time>2011-08-18T08:12:07Z</time>
      </trkpt>
      <trkpt lat="44.05634" lon="6.3104">
        <ele>1039</ele>
        <time>2011-08-18T08:12:11Z</time>
      </trkpt>
      <trkpt lat="44.05649" lon="6.3104">
        <ele>1039</ele>
        <time>2011-08-18T08:12:14Z</time>
      </trkpt>
      <trkpt lat="44.05681" lon="6.31044">
        <ele>1041</ele>
        <time>2011-08-18T08:12:21Z</time>
      </trkpt>
      <trkpt lat="44.05698" lon="6.31039">
        <ele>1041</ele>
        <time>2011-08-18T08:12:25Z</time>
      </trkpt>
      <trkpt lat="44.05728" lon="6.31021">
        <ele>1042</ele>
        <time>2011-08-18T08:12:37Z</time>
      </trkpt>
      <trkpt lat="44.05742" lon="6.31022">
        <ele>1042</ele>
        <time>2011-08-18T08:12:43Z</time>
      </trkpt>
      <trkpt lat="44.05773" lon="6.3101">
        <ele>1041</ele>
        <time>2011-08-18T08:12:55Z</time>
      </trkpt>
      <trkpt lat="44.05789" lon="6.3102">
        <ele>1041</ele>
        <time>2011-08-18T08:12:59Z</time>
      </trkpt>
      <trkpt lat="44.05829" lon="6.3105">
        <ele>1042</ele>
        <time>2011-08-18T08:13:10Z</time>
      </trkpt>
      <trkpt lat="44.05842" lon="6.31088">
        <ele>1043</ele>
        <time>2011-08-18T08:13:22Z</time>
      </trkpt>
      <trkpt lat="44.05858" lon="6.3113">
        <ele>1044</ele>
        <time>2011-08-18T08:13:40Z</time>
      </trkpt>
      <trkpt lat="44.05882" lon="6.31156">
        <ele>1043</ele>
        <time>2011-08-18T08:13:54Z</time>
      </trkpt>
      <trkpt lat="44.05889" lon="6.31161">
        <ele>1042</ele>
        <time>2011-08-18T08:13:56Z</time>
      </trkpt>
      <trkpt lat="44.05902" lon="6.31187">
        <ele>1049</ele>
        <time>2011-08-18T08:14:02Z</time>
      </trkpt>
      <trkpt lat="44.05903" lon="6.31197">
        <ele>1051</ele>
        <time>2011-08-18T08:14:04Z</time>
      </trkpt>
      <trkpt lat="44.05916" lon="6.31232">
        <ele>1052</ele>
        <time>2011-08-18T08:14:11Z</time>
      </trkpt>
      <trkpt lat="44.05919" lon="6.31249">
        <ele>1048</ele>
        <time>2011-08-18T08:14:14Z</time>
      </trkpt>
      <trkpt lat="44.05945" lon="6.31301">
        <ele>1049</ele>
        <time>2011-08-18T08:14:25Z</time>
      </trkpt>
      <trkpt lat="44.05986" lon="6.31338">
        <ele>1049</ele>
        <time>2011-08-18T08:14:37Z</time>
      </trkpt>
      <trkpt lat="44.05996" lon="6.31358">
        <ele>1051</ele>
        <time>2011-08-18T08:14:40Z</time>
      </trkpt>
      <trkpt lat="44.06017" lon="6.31372">
        <ele>1040</ele>
        <time>2011-08-18T08:14:44Z</time>
      </trkpt>
      <trkpt lat="44.06037" lon="6.314">
        <ele>1040</ele>
        <time>2011-08-18T08:14:49Z</time>
      </trkpt>
      <trkpt lat="44.06066" lon="6.31433">
        <ele>1042</ele>
        <time>2011-08-18T08:14:55Z</time>
      </trkpt>
      <trkpt lat="44.06085" lon="6.31463">
        <ele>1040</ele>
        <time>2011-08-18T08:14:59Z</time>
      </trkpt>
      <trkpt lat="44.06096" lon="6.31493">
        <ele>1043</ele>
        <time>2011-08-18T08:15:03Z</time>
      </trkpt>
      <trkpt lat="44.06129" lon="6.31498">
        <ele>1043</ele>
        <time>2011-08-18T08:15:12Z</time>
      </trkpt>
      <trkpt lat="44.06134" lon="6.31487">
        <ele>1043</ele>
        <time>2011-08-18T08:15:14Z</time>
      </trkpt>
      <trkpt lat="44.06163" lon="6.31432">
        <ele>1039</ele>
        <time>2011-08-18T08:15:28Z</time>
      </trkpt>
      <trkpt lat="44.06208" lon="6.31399">
        <ele>1041</ele>
        <time>2011-08-18T08:15:47Z</time>
      </trkpt>
      <trkpt lat="44.06241" lon="6.31367">
        <ele>1041</ele>
        <time>2011-08-18T08:16:02Z</time>
      </trkpt>
      <trkpt lat="44.06253" lon="6.31363">
        <ele>1046</ele>
        <time>2011-08-18T08:16:06Z</time>
      </trkpt>
      <trkpt lat="44.06289" lon="6.31361">
        <ele>1046</ele>
        <time>2011-08-18T08:16:13Z</time>
      </trkpt>
      <trkpt lat="44.06339" lon="6.31348">
        <ele>1047</ele>
        <time>2011-08-18T08:16:26Z</time>
      </trkpt>
      <trkpt lat="44.06363" lon="6.31341">
        <ele>1049</ele>
        <time>2011-08-18T08:16:30Z</time>
      </trkpt>
      <trkpt lat="44.06412" lon="6.31309">
        <ele>1043</ele>
        <time>2011-08-18T08:16:37Z</time>
      </trkpt>
      <trkpt lat="44.0644" lon="6.31282">
        <ele>1047</ele>
        <time>2011-08-18T08:16:42Z</time>
      </trkpt>
      <trkpt lat="44.06487" lon="6.31255">
        <ele>1048</ele>
        <time>2011-08-18T08:16:54Z</time>
      </trkpt>
      <trkpt lat="44.06543" lon="6.31213">
        <ele>1043</ele>
        <time>2011-08-18T08:17:10Z</time>
      </trkpt>
      <trkpt lat="44.06556" lon="6.31204">
        <ele>1043</ele>
        <time>2011-08-18T08:17:13Z</time>
      </trkpt>
      <trkpt lat="44.06581" lon="6.31167">
        <ele>1038</ele>
        <time>2011-08-18T08:17:19Z</time>
      </trkpt>
      <trkpt lat="44.06597" lon="6.31041">
        <ele>1028</ele>
        <time>2011-08-18T08:17:31Z</time>
      </trkpt>
      <trkpt lat="44.06599" lon="6.31016">
        <ele>1027</ele>
        <time>2011-08-18T08:17:34Z</time>
      </trkpt>
      <trkpt lat="44.06598" lon="6.30992">
        <ele>1025</ele>
        <time>2011-08-18T08:17:39Z</time>
      </trkpt>
      <trkpt lat="44.06593" lon="6.30979">
        <ele>1025</ele>
        <time>2011-08-18T08:17:45Z</time>
      </trkpt>
      <trkpt lat="44.06587" lon="6.30977">
        <ele>1025</ele>
        <time>2011-08-18T08:17:48Z</time>
      </trkpt>
      <trkpt lat="44.0658" lon="6.30969">
        <ele>1029</ele>
        <time>2011-08-18T08:17:52Z</time>
      </trkpt>
      <trkpt lat="44.06579" lon="6.30968">
        <ele>1029</ele>
        <time>2011-08-18T08:18:02Z</time>
      </trkpt>
      <trkpt lat="44.0658" lon="6.30971">
        <ele>1028</ele>
        <time>2011-08-18T08:18:04Z</time>
      </trkpt>
      <trkpt lat="44.06577" lon="6.30991">
        <ele>1028</ele>
        <time>2011-08-18T08:18:25Z</time>
      </trkpt>
      <trkpt lat="44.06578" lon="6.3099">
        <ele>1028</ele>
        <time>2011-08-18T08:29:33Z</time>
      </trkpt>
      <trkpt lat="44.06586" lon="6.30989">
        <ele>1026</ele>
        <time>2011-08-18T08:29:38Z</time>
      </trkpt>
      <trkpt lat="44.06587" lon="6.30983">
        <ele>1025</ele>
        <time>2011-08-18T08:29:42Z</time>
      </trkpt>
      <trkpt lat="44.06587" lon="6.3098">
        <ele>1025</ele>
        <time>2011-08-18T08:29:44Z</time>
      </trkpt>
      <trkpt lat="44.06596" lon="6.3099">
        <ele>1025</ele>
        <time>2011-08-18T08:29:50Z</time>
      </trkpt>
      <trkpt lat="44.06638" lon="6.31029">
        <ele>1026</ele>
        <time>2011-08-18T08:30:05Z</time>
      </trkpt>
      <trkpt lat="44.06681" lon="6.31069">
        <ele>1024</ele>
        <time>2011-08-18T08:30:19Z</time>
      </trkpt>
      <trkpt lat="44.06695" lon="6.31092">
        <ele>1028</ele>
        <time>2011-08-18T08:30:25Z</time>
      </trkpt>
      <trkpt lat="44.06716" lon="6.31118">
        <ele>1028</ele>
        <time>2011-08-18T08:30:30Z</time>
      </trkpt>
      <trkpt lat="44.06733" lon="6.31157">
        <ele>1028</ele>
        <time>2011-08-18T08:30:35Z</time>
      </trkpt>
      <trkpt lat="44.06766" lon="6.31181">
        <ele>1034</ele>
        <time>2011-08-18T08:30:42Z</time>
      </trkpt>
      <trkpt lat="44.06807" lon="6.31154">
        <ele>1029</ele>
        <time>2011-08-18T08:30:57Z</time>
      </trkpt>
      <trkpt lat="44.0681" lon="6.3112">
        <ele>1027</ele>
        <time>2011-08-18T08:31:06Z</time>
      </trkpt>
      <trkpt lat="44.06807" lon="6.31121">
        <ele>1027</ele>
        <time>2011-08-18T08:31:17Z</time>
      </trkpt>
      <trkpt lat="44.06802" lon="6.31111">
        <ele>1026</ele>
        <time>2011-08-18T08:31:52Z</time>
      </trkpt>
      <trkpt lat="44.06803" lon="6.31108">
        <ele>1026</ele>
        <time>2011-08-18T08:32:07Z</time>
      </trkpt>
      <trkpt lat="44.06808" lon="6.31081">
        <ele>1019</ele>
        <time>2011-08-18T08:32:20Z</time>
      </trkpt>
      <trkpt lat="44.06808" lon="6.31075">
        <ele>1019</ele>
        <time>2011-08-18T08:32:28Z</time>
      </trkpt>
      <trkpt lat="44.06801" lon="6.3106">
        <ele>1018</ele>
        <time>2011-08-18T08:32:39Z</time>
      </trkpt>
      <trkpt lat="44.0679" lon="6.3102">
        <ele>1015</ele>
        <time>2011-08-18T08:32:50Z</time>
      </trkpt>
      <trkpt lat="44.06773" lon="6.30973">
        <ele>1007</ele>
        <time>2011-08-18T08:33:03Z</time>
      </trkpt>
      <trkpt lat="44.06765" lon="6.30949">
        <ele>1005</ele>
        <time>2011-08-18T08:33:12Z</time>
      </trkpt>
      <trkpt lat="44.06765" lon="6.30946">
        <ele>1005</ele>
        <time>2011-08-18T08:33:40Z</time>
      </trkpt>
      <trkpt lat="44.06766" lon="6.30941">
        <ele>1005</ele>
        <time>2011-08-18T08:35:02Z</time>
      </trkpt>
      <trkpt lat="44.06768" lon="6.30928">
        <ele>1003</ele>
        <time>2011-08-18T08:35:14Z</time>
      </trkpt>
      <trkpt lat="44.06804" lon="6.30911">
        <ele>1001</ele>
        <time>2011-08-18T08:35:31Z</time>
      </trkpt>
      <trkpt lat="44.06812" lon="6.30908">
        <ele>1002</ele>
        <time>2011-08-18T08:35:42Z</time>
      </trkpt>
      <trkpt lat="44.06815" lon="6.30904">
        <ele>1002</ele>
        <time>2011-08-18T08:35:52Z</time>
      </trkpt>
      <trkpt lat="44.06826" lon="6.30907">
        <ele>1004</ele>
        <time>2011-08-18T08:36:06Z</time>
      </trkpt>
      <trkpt lat="44.06848" lon="6.30915">
        <ele>1004</ele>
        <time>2011-08-18T08:36:15Z</time>
      </trkpt>
      <trkpt lat="44.06876" lon="6.30923">
        <ele>1008</ele>
        <time>2011-08-18T08:36:25Z</time>
      </trkpt>
      <trkpt lat="44.06881" lon="6.30929">
        <ele>1008</ele>
        <time>2011-08-18T08:36:29Z</time>
      </trkpt>
      <trkpt lat="44.06906" lon="6.30915">
        <ele>1003</ele>
        <time>2011-08-18T08:36:42Z</time>
      </trkpt>
      <trkpt lat="44.06941" lon="6.30917">
        <ele>1003</ele>
        <time>2011-08-18T08:36:56Z</time>
      </trkpt>
      <trkpt lat="44.06959" lon="6.30914">
        <ele>995</ele>
        <time>2011-08-18T08:37:03Z</time>
      </trkpt>
      <trkpt lat="44.06974" lon="6.30933">
        <ele>1000</ele>
        <time>2011-08-18T08:37:09Z</time>
      </trkpt>
      <trkpt lat="44.06981" lon="6.30952">
        <ele>1001</ele>
        <time>2011-08-18T08:37:13Z</time>
      </trkpt>
      <trkpt lat="44.06994" lon="6.30966">
        <ele>1002</ele>
        <time>2011-08-18T08:37:17Z</time>
      </trkpt>
      <trkpt lat="44.07008" lon="6.30975">
        <ele>995</ele>
        <time>2011-08-18T08:37:21Z</time>
      </trkpt>
      <trkpt lat="44.07015" lon="6.30978">
        <ele>995</ele>
        <time>2011-08-18T08:37:23Z</time>
      </trkpt>
      <trkpt lat="44.07029" lon="6.31016">
        <ele>1002</ele>
        <time>2011-08-18T08:37:33Z</time>
      </trkpt>
      <trkpt lat="44.07032" lon="6.31019">
        <ele>1002</ele>
        <time>2011-08-18T08:37:34Z</time>
      </trkpt>
      <trkpt lat="44.07057" lon="6.31012">
        <ele>998</ele>
        <time>2011-08-18T08:37:46Z</time>
      </trkpt>
      <trkpt lat="44.07066" lon="6.31006">
        <ele>995</ele>
        <time>2011-08-18T08:37:57Z</time>
      </trkpt>
      <trkpt lat="44.0708" lon="6.31003">
        <ele>990</ele>
        <time>2011-08-18T08:38:03Z</time>
      </trkpt>
      <trkpt lat="44.07095" lon="6.31011">
        <ele>990</ele>
        <time>2011-08-18T08:38:14Z</time>
      </trkpt>
      <trkpt lat="44.07097" lon="6.3101">
        <ele>990</ele>
        <time>2011-08-18T08:38:17Z</time>
      </trkpt>
      <trkpt lat="44.0711" lon="6.31007">
        <ele>991</ele>
        <time>2011-08-18T08:38:31Z</time>
      </trkpt>
      <trkpt lat="44.07109" lon="6.31007">
        <ele>990</ele>
        <time>2011-08-18T08:38:38Z</time>
      </trkpt>
      <trkpt lat="44.0712" lon="6.30997">
        <ele>983</ele>
        <time>2011-08-18T08:38:45Z</time>
      </trkpt>
      <trkpt lat="44.0714" lon="6.30998">
        <ele>982</ele>
        <time>2011-08-18T08:38:53Z</time>
      </trkpt>
      <trkpt lat="44.07147" lon="6.30999">
        <ele>982</ele>
        <time>2011-08-18T08:39:01Z</time>
      </trkpt>
      <trkpt lat="44.0715" lon="6.30997">
        <ele>982</ele>
        <time>2011-08-18T08:39:09Z</time>
      </trkpt>
      <trkpt lat="44.07177" lon="6.30984">
        <ele>981</ele>
        <time>2011-08-18T08:39:23Z</time>
      </trkpt>
      <trkpt lat="44.07214" lon="6.30968">
        <ele>980</ele>
        <time>2011-08-18T08:39:37Z</time>
      </trkpt>
      <trkpt lat="44.0724" lon="6.30961">
        <ele>980</ele>
        <time>2011-08-18T08:39:47Z</time>
      </trkpt>
      <trkpt lat="44.07248" lon="6.30963">
        <ele>980</ele>
        <time>2011-08-18T08:39:50Z</time>
      </trkpt>
      <trkpt lat="44.07265" lon="6.3095">
        <ele>981</ele>
        <time>2011-08-18T08:39:57Z</time>
      </trkpt>
      <trkpt lat="44.07298" lon="6.30914">
        <ele>971</ele>
        <time>2011-08-18T08:40:10Z</time>
      </trkpt>
      <trkpt lat="44.07305" lon="6.30909">
        <ele>971</ele>
        <time>2011-08-18T08:40:12Z</time>
      </trkpt>
      <trkpt lat="44.07315" lon="6.30898">
        <ele>972</ele>
        <time>2011-08-18T08:40:15Z</time>
      </trkpt>
      <trkpt lat="44.07351" lon="6.30888">
        <ele>967</ele>
        <time>2011-08-18T08:40:25Z</time>
      </trkpt>
      <trkpt lat="44.07385" lon="6.30936">
        <ele>977</ele>
        <time>2011-08-18T08:40:38Z</time>
      </trkpt>
      <trkpt lat="44.07419" lon="6.30969">
        <ele>973</ele>
        <time>2011-08-18T08:40:50Z</time>
      </trkpt>
      <trkpt lat="44.07431" lon="6.30965">
        <ele>972</ele>
        <time>2011-08-18T08:40:54Z</time>
      </trkpt>
      <trkpt lat="44.0747" lon="6.30964">
        <ele>970</ele>
        <time>2011-08-18T08:41:07Z</time>
      </trkpt>
      <trkpt lat="44.07496" lon="6.3099">
        <ele>973</ele>
        <time>2011-08-18T08:41:16Z</time>
      </trkpt>
      <trkpt lat="44.075" lon="6.31007">
        <ele>977</ele>
        <time>2011-08-18T08:41:19Z</time>
      </trkpt>
      <trkpt lat="44.07514" lon="6.31037">
        <ele>982</ele>
        <time>2011-08-18T08:41:24Z</time>
      </trkpt>
      <trkpt lat="44.07518" lon="6.31064">
        <ele>985</ele>
        <time>2011-08-18T08:41:28Z</time>
      </trkpt>
      <trkpt lat="44.07538" lon="6.31079">
        <ele>986</ele>
        <time>2011-08-18T08:41:35Z</time>
      </trkpt>
      <trkpt lat="44.07552" lon="6.31054">
        <ele>986</ele>
        <time>2011-08-18T08:41:40Z</time>
      </trkpt>
      <trkpt lat="44.07566" lon="6.30996">
        <ele>977</ele>
        <time>2011-08-18T08:41:56Z</time>
      </trkpt>
      <trkpt lat="44.07581" lon="6.30937">
        <ele>974</ele>
        <time>2011-08-18T08:42:17Z</time>
      </trkpt>
      <trkpt lat="44.07607" lon="6.3093">
        <ele>983</ele>
        <time>2011-08-18T08:42:32Z</time>
      </trkpt>
      <trkpt lat="44.07621" lon="6.30931">
        <ele>985</ele>
        <time>2011-08-18T08:42:41Z</time>
      </trkpt>
      <trkpt lat="44.07628" lon="6.30944">
        <ele>987</ele>
        <time>2011-08-18T08:42:49Z</time>
      </trkpt>
      <trkpt lat="44.07614" lon="6.30982">
        <ele>987</ele>
        <time>2011-08-18T08:43:09Z</time>
      </trkpt>
      <trkpt lat="44.07615" lon="6.3099">
        <ele>987</ele>
        <time>2011-08-18T08:43:13Z</time>
      </trkpt>
      <trkpt lat="44.0762" lon="6.30995">
        <ele>988</ele>
        <time>2011-08-18T08:43:17Z</time>
      </trkpt>
      <trkpt lat="44.07652" lon="6.31">
        <ele>995</ele>
        <time>2011-08-18T08:43:35Z</time>
      </trkpt>
      <trkpt lat="44.07658" lon="6.31005">
        <ele>1001</ele>
        <time>2011-08-18T08:43:39Z</time>
      </trkpt>
      <trkpt lat="44.07687" lon="6.3099">
        <ele>1005</ele>
        <time>2011-08-18T08:43:55Z</time>
      </trkpt>
      <trkpt lat="44.07713" lon="6.30969">
        <ele>1008</ele>
        <time>2011-08-18T08:44:11Z</time>
      </trkpt>
      <trkpt lat="44.07736" lon="6.30941">
        <ele>1008</ele>
        <time>2011-08-18T08:44:30Z</time>
      </trkpt>
      <trkpt lat="44.07754" lon="6.30911">
        <ele>1010</ele>
        <time>2011-08-18T08:44:47Z</time>
      </trkpt>
      <trkpt lat="44.07761" lon="6.30896">
        <ele>1010</ele>
        <time>2011-08-18T08:45:03Z</time>
      </trkpt>
      <trkpt lat="44.07763" lon="6.30893">
        <ele>1010</ele>
        <time>2011-08-18T08:45:06Z</time>
      </trkpt>
      <trkpt lat="44.07785" lon="6.30856">
        <ele>1009</ele>
        <time>2011-08-18T08:45:23Z</time>
      </trkpt>
      <trkpt lat="44.07809" lon="6.30811">
        <ele>1004</ele>
        <time>2011-08-18T08:45:37Z</time>
      </trkpt>
      <trkpt lat="44.07831" lon="6.30767">
        <ele>1005</ele>
        <time>2011-08-18T08:45:50Z</time>
      </trkpt>
      <trkpt lat="44.07844" lon="6.30737">
        <ele>1005</ele>
        <time>2011-08-18T08:45:57Z</time>
      </trkpt>
      <trkpt lat="44.07845" lon="6.30712">
        <ele>1003</ele>
        <time>2011-08-18T08:46:01Z</time>
      </trkpt>
      <trkpt lat="44.07857" lon="6.30678">
        <ele>1001</ele>
        <time>2011-08-18T08:46:08Z</time>
      </trkpt>
      <trkpt lat="44.07868" lon="6.3068">
        <ele>1001</ele>
        <time>2011-08-18T08:46:10Z</time>
      </trkpt>
      <trkpt lat="44.07879" lon="6.30684">
        <ele>1001</ele>
        <time>2011-08-18T08:46:12Z</time>
      </trkpt>
      <trkpt lat="44.07908" lon="6.30708">
        <ele>1001</ele>
        <time>2011-08-18T08:46:18Z</time>
      </trkpt>
      <trkpt lat="44.07925" lon="6.30687">
        <ele>994</ele>
        <time>2011-08-18T08:46:24Z</time>
      </trkpt>
      <trkpt lat="44.07925" lon="6.30666">
        <ele>996</ele>
        <time>2011-08-18T08:46:27Z</time>
      </trkpt>
      <trkpt lat="44.07949" lon="6.30636">
        <ele>988</ele>
        <time>2011-08-18T08:46:34Z</time>
      </trkpt>
      <trkpt lat="44.07975" lon="6.30679">
        <ele>986</ele>
        <time>2011-08-18T08:46:40Z</time>
      </trkpt>
      <trkpt lat="44.07981" lon="6.30731">
        <ele>984</ele>
        <time>2011-08-18T08:46:45Z</time>
      </trkpt>
      <trkpt lat="44.07979" lon="6.30754">
        <ele>982</ele>
        <time>2011-08-18T08:46:47Z</time>
      </trkpt>
      <trkpt lat="44.07989" lon="6.30829">
        <ele>978</ele>
        <time>2011-08-18T08:46:53Z</time>
      </trkpt>
      <trkpt lat="44.0799" lon="6.30872">
        <ele>982</ele>
        <time>2011-08-18T08:46:57Z</time>
      </trkpt>
      <trkpt lat="44.08" lon="6.30901">
        <ele>979</ele>
        <time>2011-08-18T08:47:00Z</time>
      </trkpt>
      <trkpt lat="44.08009" lon="6.30937">
        <ele>975</ele>
        <time>2011-08-18T08:47:04Z</time>
      </trkpt>
      <trkpt lat="44.08023" lon="6.30974">
        <ele>978</ele>
        <time>2011-08-18T08:47:11Z</time>
      </trkpt>
      <trkpt lat="44.0805" lon="6.30986">
        <ele>977</ele>
        <time>2011-08-18T08:47:18Z</time>
      </trkpt>
      <trkpt lat="44.08056" lon="6.30973">
        <ele>976</ele>
        <time>2011-08-18T08:47:20Z</time>
      </trkpt>
      <trkpt lat="44.08082" lon="6.30958">
        <ele>974</ele>
        <time>2011-08-18T08:47:25Z</time>
      </trkpt>
      <trkpt lat="44.0811" lon="6.30928">
        <ele>974</ele>
        <time>2011-08-18T08:47:30Z</time>
      </trkpt>
      <trkpt lat="44.08127" lon="6.30913">
        <ele>965</ele>
        <time>2011-08-18T08:47:33Z</time>
      </trkpt>
      <trkpt lat="44.08148" lon="6.30883">
        <ele>964</ele>
        <time>2011-08-18T08:47:37Z</time>
      </trkpt>
      <trkpt lat="44.08174" lon="6.3087">
        <ele>966</ele>
        <time>2011-08-18T08:47:41Z</time>
      </trkpt>
      <trkpt lat="44.0819" lon="6.30861">
        <ele>966</ele>
        <time>2011-08-18T08:47:44Z</time>
      </trkpt>
      <trkpt lat="44.08216" lon="6.30855">
        <ele>966</ele>
        <time>2011-08-18T08:47:48Z</time>
      </trkpt>
      <trkpt lat="44.08246" lon="6.30835">
        <ele>960</ele>
        <time>2011-08-18T08:47:53Z</time>
      </trkpt>
      <trkpt lat="44.08255" lon="6.30822">
        <ele>955</ele>
        <time>2011-08-18T08:47:55Z</time>
      </trkpt>
      <trkpt lat="44.08276" lon="6.30815">
        <ele>952</ele>
        <time>2011-08-18T08:47:59Z</time>
      </trkpt>
      <trkpt lat="44.08329" lon="6.30831">
        <ele>956</ele>
        <time>2011-08-18T08:48:11Z</time>
      </trkpt>
      <trkpt lat="44.08363" lon="6.30855">
        <ele>958</ele>
        <time>2011-08-18T08:48:26Z</time>
      </trkpt>
      <trkpt lat="44.08381" lon="6.30889">
        <ele>960</ele>
        <time>2011-08-18T08:48:37Z</time>
      </trkpt>
      <trkpt lat="44.08389" lon="6.30899">
        <ele>960</ele>
        <time>2011-08-18T08:48:41Z</time>
      </trkpt>
      <trkpt lat="44.08425" lon="6.30938">
        <ele>959</ele>
        <time>2011-08-18T08:48:56Z</time>
      </trkpt>
      <trkpt lat="44.08465" lon="6.30973">
        <ele>960</ele>
        <time>2011-08-18T08:49:11Z</time>
      </trkpt>
      <trkpt lat="44.08497" lon="6.31002">
        <ele>960</ele>
        <time>2011-08-18T08:49:21Z</time>
      </trkpt>
      <trkpt lat="44.085" lon="6.31009">
        <ele>959</ele>
        <time>2011-08-18T08:49:25Z</time>
      </trkpt>
      <trkpt lat="44.08509" lon="6.31073">
        <ele>966</ele>
        <time>2011-08-18T08:49:48Z</time>
      </trkpt>
      <trkpt lat="44.08514" lon="6.31083">
        <ele>966</ele>
        <time>2011-08-18T08:49:50Z</time>
      </trkpt>
      <trkpt lat="44.08551" lon="6.31127">
        <ele>971</ele>
        <time>2011-08-18T08:50:06Z</time>
      </trkpt>
      <trkpt lat="44.08594" lon="6.31129">
        <ele>968</ele>
        <time>2011-08-18T08:50:21Z</time>
      </trkpt>
      <trkpt lat="44.08638" lon="6.31115">
        <ele>967</ele>
        <time>2011-08-18T08:50:36Z</time>
      </trkpt>
      <trkpt lat="44.08676" lon="6.31153">
        <ele>970</ele>
        <time>2011-08-18T08:50:53Z</time>
      </trkpt>
      <trkpt lat="44.08693" lon="6.31182">
        <ele>977</ele>
        <time>2011-08-18T08:51:07Z</time>
      </trkpt>
      <trkpt lat="44.0872" lon="6.31182">
        <ele>978</ele>
        <time>2011-08-18T08:51:21Z</time>
      </trkpt>
      <trkpt lat="44.08721" lon="6.31181">
        <ele>978</ele>
        <time>2011-08-18T08:51:22Z</time>
      </trkpt>
      <trkpt lat="44.08724" lon="6.31189">
        <ele>979</ele>
        <time>2011-08-18T08:51:30Z</time>
      </trkpt>
      <trkpt lat="44.08701" lon="6.31209">
        <ele>979</ele>
        <time>2011-08-18T08:51:44Z</time>
      </trkpt>
      <trkpt lat="44.0872" lon="6.31213">
        <ele>980</ele>
        <time>2011-08-18T08:51:53Z</time>
      </trkpt>
      <trkpt lat="44.08756" lon="6.31191">
        <ele>983</ele>
        <time>2011-08-18T08:52:12Z</time>
      </trkpt>
      <trkpt lat="44.08787" lon="6.31163">
        <ele>978</ele>
        <time>2011-08-18T08:52:30Z</time>
      </trkpt>
      <trkpt lat="44.08829" lon="6.31176">
        <ele>986</ele>
        <time>2011-08-18T08:52:49Z</time>
      </trkpt>
      <trkpt lat="44.08867" lon="6.31202">
        <ele>990</ele>
        <time>2011-08-18T08:53:07Z</time>
      </trkpt>
      <trkpt lat="44.08917" lon="6.31216">
        <ele>993</ele>
        <time>2011-08-18T08:53:30Z</time>
      </trkpt>
      <trkpt lat="44.08931" lon="6.31241">
        <ele>994</ele>
        <time>2011-08-18T08:53:42Z</time>
      </trkpt>
      <trkpt lat="44.08942" lon="6.31284">
        <ele>1000</ele>
        <time>2011-08-18T08:53:58Z</time>
      </trkpt>
      <trkpt lat="44.08923" lon="6.31333">
        <ele>1003</ele>
        <time>2011-08-18T08:54:15Z</time>
      </trkpt>
      <trkpt lat="44.08889" lon="6.31345">
        <ele>1007</ele>
        <time>2011-08-18T08:54:32Z</time>
      </trkpt>
      <trkpt lat="44.08849" lon="6.31345">
        <ele>1007</ele>
        <time>2011-08-18T08:54:50Z</time>
      </trkpt>
      <trkpt lat="44.08856" lon="6.3137">
        <ele>1009</ele>
        <time>2011-08-18T08:55:01Z</time>
      </trkpt>
      <trkpt lat="44.08892" lon="6.31401">
        <ele>1011</ele>
        <time>2011-08-18T08:55:21Z</time>
      </trkpt>
      <trkpt lat="44.08931" lon="6.31429">
        <ele>1018</ele>
        <time>2011-08-18T08:55:41Z</time>
      </trkpt>
      <trkpt lat="44.08985" lon="6.31426">
        <ele>1019</ele>
        <time>2011-08-18T08:56:04Z</time>
      </trkpt>
      <trkpt lat="44.09018" lon="6.31438">
        <ele>1020</ele>
        <time>2011-08-18T08:56:19Z</time>
      </trkpt>
      <trkpt lat="44.0906" lon="6.31426">
        <ele>1020</ele>
        <time>2011-08-18T08:56:34Z</time>
      </trkpt>
      <trkpt lat="44.09108" lon="6.31398">
        <ele>1015</ele>
        <time>2011-08-18T08:56:52Z</time>
      </trkpt>
      <trkpt lat="44.09122" lon="6.31408">
        <ele>1015</ele>
        <time>2011-08-18T08:56:57Z</time>
      </trkpt>
      <trkpt lat="44.09144" lon="6.31461">
        <ele>1021</ele>
        <time>2011-08-18T08:57:12Z</time>
      </trkpt>
      <trkpt lat="44.09193" lon="6.3149">
        <ele>1021</ele>
        <time>2011-08-18T08:57:28Z</time>
      </trkpt>
      <trkpt lat="44.09234" lon="6.31506">
        <ele>1025</ele>
        <time>2011-08-18T08:57:42Z</time>
      </trkpt>
      <trkpt lat="44.09261" lon="6.31539">
        <ele>1022</ele>
        <time>2011-08-18T08:57:52Z</time>
      </trkpt>
      <trkpt lat="44.09288" lon="6.31589">
        <ele>1027</ele>
        <time>2011-08-18T08:58:06Z</time>
      </trkpt>
      <trkpt lat="44.09313" lon="6.31607">
        <ele>1026</ele>
        <time>2011-08-18T08:58:15Z</time>
      </trkpt>
      <trkpt lat="44.09339" lon="6.31587">
        <ele>1017</ele>
        <time>2011-08-18T08:58:21Z</time>
      </trkpt>
      <trkpt lat="44.09367" lon="6.31587">
        <ele>1009</ele>
        <time>2011-08-18T08:58:28Z</time>
      </trkpt>
      <trkpt lat="44.09366" lon="6.31627">
        <ele>1010</ele>
        <time>2011-08-18T08:58:34Z</time>
      </trkpt>
      <trkpt lat="44.09362" lon="6.31669">
        <ele>1018</ele>
        <time>2011-08-18T08:58:39Z</time>
      </trkpt>
      <trkpt lat="44.09369" lon="6.31696">
        <ele>1017</ele>
        <time>2011-08-18T08:58:42Z</time>
      </trkpt>
      <trkpt lat="44.09392" lon="6.3172">
        <ele>1015</ele>
        <time>2011-08-18T08:58:47Z</time>
      </trkpt>
      <trkpt lat="44.09404" lon="6.31722">
        <ele>1014</ele>
        <time>2011-08-18T08:58:49Z</time>
      </trkpt>
      <trkpt lat="44.09429" lon="6.31743">
        <ele>1000</ele>
        <time>2011-08-18T08:58:54Z</time>
      </trkpt>
      <trkpt lat="44.09432" lon="6.31783">
        <ele>999</ele>
        <time>2011-08-18T08:59:01Z</time>
      </trkpt>
      <trkpt lat="44.09428" lon="6.31797">
        <ele>999</ele>
        <time>2011-08-18T08:59:03Z</time>
      </trkpt>
      <trkpt lat="44.09427" lon="6.31825">
        <ele>1004</ele>
        <time>2011-08-18T08:59:07Z</time>
      </trkpt>
      <trkpt lat="44.09427" lon="6.3184">
        <ele>1005</ele>
        <time>2011-08-18T08:59:09Z</time>
      </trkpt>
      <trkpt lat="44.09417" lon="6.31871">
        <ele>1001</ele>
        <time>2011-08-18T08:59:13Z</time>
      </trkpt>
      <trkpt lat="44.09423" lon="6.31908">
        <ele>1004</ele>
        <time>2011-08-18T08:59:18Z</time>
      </trkpt>
      <trkpt lat="44.09415" lon="6.31935">
        <ele>1018</ele>
        <time>2011-08-18T08:59:22Z</time>
      </trkpt>
      <trkpt lat="44.09415" lon="6.31961">
        <ele>1022</ele>
        <time>2011-08-18T08:59:28Z</time>
      </trkpt>
      <trkpt lat="44.09441" lon="6.31972">
        <ele>1002</ele>
        <time>2011-08-18T08:59:33Z</time>
      </trkpt>
      <trkpt lat="44.09456" lon="6.3199">
        <ele>1000</ele>
        <time>2011-08-18T08:59:37Z</time>
      </trkpt>
      <trkpt lat="44.09465" lon="6.32021">
        <ele>1004</ele>
        <time>2011-08-18T08:59:41Z</time>
      </trkpt>
      <trkpt lat="44.09484" lon="6.32039">
        <ele>1003</ele>
        <time>2011-08-18T08:59:46Z</time>
      </trkpt>
      <trkpt lat="44.0953" lon="6.32049">
        <ele>995</ele>
        <time>2011-08-18T08:59:55Z</time>
      </trkpt>
      <trkpt lat="44.09561" lon="6.32053">
        <ele>996</ele>
        <time>2011-08-18T09:00:05Z</time>
      </trkpt>
      <trkpt lat="44.09607" lon="6.32057">
        <ele>999</ele>
        <time>2011-08-18T09:00:18Z</time>
      </trkpt>
      <trkpt lat="44.09642" lon="6.32032">
        <ele>999</ele>
        <time>2011-08-18T09:00:29Z</time>
      </trkpt>
      <trkpt lat="44.09634" lon="6.31974">
        <ele>988</ele>
        <time>2011-08-18T09:00:41Z</time>
      </trkpt>
      <trkpt lat="44.09632" lon="6.3197">
        <ele>988</ele>
        <time>2011-08-18T09:00:42Z</time>
      </trkpt>
      <trkpt lat="44.0965" lon="6.31962">
        <ele>988</ele>
        <time>2011-08-18T09:00:50Z</time>
      </trkpt>
      <trkpt lat="44.09671" lon="6.31983">
        <ele>994</ele>
        <time>2011-08-18T09:01:00Z</time>
      </trkpt>
      <trkpt lat="44.09695" lon="6.32011">
        <ele>1003</ele>
        <time>2011-08-18T09:01:10Z</time>
      </trkpt>
      <trkpt lat="44.0974" lon="6.32012">
        <ele>1002</ele>
        <time>2011-08-18T09:01:24Z</time>
      </trkpt>
      <trkpt lat="44.09782" lon="6.32016">
        <ele>1004</ele>
        <time>2011-08-18T09:01:38Z</time>
      </trkpt>
      <trkpt lat="44.09802" lon="6.32034">
        <ele>1005</ele>
        <time>2011-08-18T09:01:47Z</time>
      </trkpt>
      <trkpt lat="44.09812" lon="6.32063">
        <ele>1007</ele>
        <time>2011-08-18T09:01:55Z</time>
      </trkpt>
      <trkpt lat="44.09819" lon="6.32086">
        <ele>1012</ele>
        <time>2011-08-18T09:02:01Z</time>
      </trkpt>
      <trkpt lat="44.09838" lon="6.32106">
        <ele>1012</ele>
        <time>2011-08-18T09:02:09Z</time>
      </trkpt>
      <trkpt lat="44.09845" lon="6.32109">
        <ele>1013</ele>
        <time>2011-08-18T09:02:13Z</time>
      </trkpt>
      <trkpt lat="44.09871" lon="6.32127">
        <ele>1015</ele>
        <time>2011-08-18T09:02:25Z</time>
      </trkpt>
      <trkpt lat="44.09876" lon="6.3213">
        <ele>1015</ele>
        <time>2011-08-18T09:02:27Z</time>
      </trkpt>
      <trkpt lat="44.09884" lon="6.32126">
        <ele>1015</ele>
        <time>2011-08-18T09:02:31Z</time>
      </trkpt>
      <trkpt lat="44.09889" lon="6.32092">
        <ele>1015</ele>
        <time>2011-08-18T09:02:43Z</time>
      </trkpt>
      <trkpt lat="44.099" lon="6.32054">
        <ele>1013</ele>
        <time>2011-08-18T09:02:59Z</time>
      </trkpt>
      <trkpt lat="44.09904" lon="6.32048">
        <ele>1013</ele>
        <time>2011-08-18T09:03:02Z</time>
      </trkpt>
      <trkpt lat="44.09905" lon="6.32035">
        <ele>1013</ele>
        <time>2011-08-18T09:03:06Z</time>
      </trkpt>
      <trkpt lat="44.09906" lon="6.3199">
        <ele>1011</ele>
        <time>2011-08-18T09:03:22Z</time>
      </trkpt>
      <trkpt lat="44.0993" lon="6.31958">
        <ele>1020</ele>
        <time>2011-08-18T09:03:39Z</time>
      </trkpt>
      <trkpt lat="44.09945" lon="6.31923">
        <ele>1019</ele>
        <time>2011-08-18T09:03:53Z</time>
      </trkpt>
      <trkpt lat="44.09977" lon="6.31896">
        <ele>1016</ele>
        <time>2011-08-18T09:04:11Z</time>
      </trkpt>
      <trkpt lat="44.09992" lon="6.31877">
        <ele>1015</ele>
        <time>2011-08-18T09:04:24Z</time>
      </trkpt>
      <trkpt lat="44.09991" lon="6.31877">
        <ele>1014</ele>
        <time>2011-08-18T09:04:51Z</time>
      </trkpt>
      <trkpt lat="44.09992" lon="6.31876">
        <ele>1014</ele>
        <time>2011-08-18T09:09:12Z</time>
      </trkpt>
      <trkpt lat="44.09994" lon="6.31876">
        <ele>1015</ele>
        <time>2011-08-18T09:09:14Z</time>
      </trkpt>
      <trkpt lat="44.10012" lon="6.31845">
        <ele>1025</ele>
        <time>2011-08-18T09:09:29Z</time>
      </trkpt>
      <trkpt lat="44.10024" lon="6.31786">
        <ele>1019</ele>
        <time>2011-08-18T09:09:44Z</time>
      </trkpt>
      <trkpt lat="44.10025" lon="6.31772">
        <ele>1018</ele>
        <time>2011-08-18T09:09:47Z</time>
      </trkpt>
      <trkpt lat="44.10038" lon="6.31729">
        <ele>1009</ele>
        <time>2011-08-18T09:09:55Z</time>
      </trkpt>
      <trkpt lat="44.10066" lon="6.31704">
        <ele>1009</ele>
        <time>2011-08-18T09:10:05Z</time>
      </trkpt>
      <trkpt lat="44.10085" lon="6.31716">
        <ele>1017</ele>
        <time>2011-08-18T09:10:13Z</time>
      </trkpt>
      <trkpt lat="44.10094" lon="6.31731">
        <ele>1019</ele>
        <time>2011-08-18T09:10:20Z</time>
      </trkpt>
      <trkpt lat="44.10117" lon="6.31777">
        <ele>1026</ele>
        <time>2011-08-18T09:10:33Z</time>
      </trkpt>
      <trkpt lat="44.10134" lon="6.31806">
        <ele>1026</ele>
        <time>2011-08-18T09:10:42Z</time>
      </trkpt>
      <trkpt lat="44.1016" lon="6.31829">
        <ele>1026</ele>
        <time>2011-08-18T09:10:49Z</time>
      </trkpt>
      <trkpt lat="44.10185" lon="6.31831">
        <ele>1026</ele>
        <time>2011-08-18T09:10:55Z</time>
      </trkpt>
      <trkpt lat="44.10194" lon="6.31833">
        <ele>1027</ele>
        <time>2011-08-18T09:10:57Z</time>
      </trkpt>
      <trkpt lat="44.10207" lon="6.31844">
        <ele>1032</ele>
        <time>2011-08-18T09:11:01Z</time>
      </trkpt>
      <trkpt lat="44.10221" lon="6.31838">
        <ele>1032</ele>
        <time>2011-08-18T09:11:07Z</time>
      </trkpt>
      <trkpt lat="44.10221" lon="6.31808">
        <ele>1028</ele>
        <time>2011-08-18T09:11:18Z</time>
      </trkpt>
      <trkpt lat="44.10218" lon="6.31774">
        <ele>1027</ele>
        <time>2011-08-18T09:11:32Z</time>
      </trkpt>
      <trkpt lat="44.10215" lon="6.31753">
        <ele>1026</ele>
        <time>2011-08-18T09:11:41Z</time>
      </trkpt>
      <trkpt lat="44.10238" lon="6.31733">
        <ele>1025</ele>
        <time>2011-08-18T09:11:58Z</time>
      </trkpt>
      <trkpt lat="44.10241" lon="6.31729">
        <ele>1024</ele>
        <time>2011-08-18T09:12:00Z</time>
      </trkpt>
      <trkpt lat="44.1026" lon="6.31719">
        <ele>1026</ele>
        <time>2011-08-18T09:12:11Z</time>
      </trkpt>
      <trkpt lat="44.10293" lon="6.31718">
        <ele>1025</ele>
        <time>2011-08-18T09:12:29Z</time>
      </trkpt>
      <trkpt lat="44.10308" lon="6.31757">
        <ele>1034</ele>
        <time>2011-08-18T09:12:42Z</time>
      </trkpt>
      <trkpt lat="44.1033" lon="6.31805">
        <ele>1037</ele>
        <time>2011-08-18T09:13:01Z</time>
      </trkpt>
      <trkpt lat="44.10354" lon="6.3183">
        <ele>1043</ele>
        <time>2011-08-18T09:13:18Z</time>
      </trkpt>
      <trkpt lat="44.10374" lon="6.31813">
        <ele>1044</ele>
        <time>2011-08-18T09:13:32Z</time>
      </trkpt>
      <trkpt lat="44.10398" lon="6.31796">
        <ele>1044</ele>
        <time>2011-08-18T09:13:48Z</time>
      </trkpt>
      <trkpt lat="44.10435" lon="6.31785">
        <ele>1048</ele>
        <time>2011-08-18T09:14:10Z</time>
      </trkpt>
      <trkpt lat="44.10467" lon="6.31795">
        <ele>1050</ele>
        <time>2011-08-18T09:14:29Z</time>
      </trkpt>
      <trkpt lat="44.10491" lon="6.31823">
        <ele>1055</ele>
        <time>2011-08-18T09:14:46Z</time>
      </trkpt>
      <trkpt lat="44.10496" lon="6.31826">
        <ele>1057</ele>
        <time>2011-08-18T09:14:49Z</time>
      </trkpt>
      <trkpt lat="44.10514" lon="6.31833">
        <ele>1065</ele>
        <time>2011-08-18T09:15:00Z</time>
      </trkpt>
      <trkpt lat="44.1052" lon="6.31834">
        <ele>1066</ele>
        <time>2011-08-18T09:15:04Z</time>
      </trkpt>
      <trkpt lat="44.10533" lon="6.31841">
        <ele>1068</ele>
        <time>2011-08-18T09:15:19Z</time>
      </trkpt>
      <trkpt lat="44.10547" lon="6.31848">
        <ele>1070</ele>
        <time>2011-08-18T09:15:42Z</time>
      </trkpt>
      <trkpt lat="44.1057" lon="6.31847">
        <ele>1069</ele>
        <time>2011-08-18T09:16:04Z</time>
      </trkpt>
      <trkpt lat="44.10585" lon="6.31847">
        <ele>1074</ele>
        <time>2011-08-18T09:16:20Z</time>
      </trkpt>
      <trkpt lat="44.10586" lon="6.31847">
        <ele>1074</ele>
        <time>2011-08-18T09:16:21Z</time>
      </trkpt>
      <trkpt lat="44.10589" lon="6.31843">
        <ele>1073</ele>
        <time>2011-08-18T09:16:26Z</time>
      </trkpt>
      <trkpt lat="44.10596" lon="6.31842">
        <ele>1075</ele>
        <time>2011-08-18T09:16:33Z</time>
      </trkpt>
      <trkpt lat="44.10609" lon="6.31843">
        <ele>1079</ele>
        <time>2011-08-18T09:16:49Z</time>
      </trkpt>
      <trkpt lat="44.10621" lon="6.31837">
        <ele>1081</ele>
        <time>2011-08-18T09:17:05Z</time>
      </trkpt>
      <trkpt lat="44.10623" lon="6.31838">
        <ele>1082</ele>
        <time>2011-08-18T09:17:07Z</time>
      </trkpt>
      <trkpt lat="44.10634" lon="6.31835">
        <ele>1083</ele>
        <time>2011-08-18T09:17:19Z</time>
      </trkpt>
      <trkpt lat="44.10651" lon="6.31826">
        <ele>1076</ele>
        <time>2011-08-18T09:17:39Z</time>
      </trkpt>
      <trkpt lat="44.10658" lon="6.31821">
        <ele>1076</ele>
        <time>2011-08-18T09:17:48Z</time>
      </trkpt>
      <trkpt lat="44.10676" lon="6.31807">
        <ele>1084</ele>
        <time>2011-08-18T09:18:09Z</time>
      </trkpt>
      <trkpt lat="44.10692" lon="6.31805">
        <ele>1084</ele>
        <time>2011-08-18T09:18:26Z</time>
      </trkpt>
      <trkpt lat="44.10705" lon="6.31809">
        <ele>1086</ele>
        <time>2011-08-18T09:18:44Z</time>
      </trkpt>
      <trkpt lat="44.10715" lon="6.31804">
        <ele>1086</ele>
        <time>2011-08-18T09:18:57Z</time>
      </trkpt>
      <trkpt lat="44.10719" lon="6.31801">
        <ele>1086</ele>
        <time>2011-08-18T09:19:02Z</time>
      </trkpt>
      <trkpt lat="44.10735" lon="6.31787">
        <ele>1086</ele>
        <time>2011-08-18T09:19:21Z</time>
      </trkpt>
      <trkpt lat="44.10736" lon="6.31786">
        <ele>1086</ele>
        <time>2011-08-18T09:19:22Z</time>
      </trkpt>
      <trkpt lat="44.10749" lon="6.31782">
        <ele>1087</ele>
        <time>2011-08-18T09:19:35Z</time>
      </trkpt>
      <trkpt lat="44.10765" lon="6.31794">
        <ele>1090</ele>
        <time>2011-08-18T09:19:54Z</time>
      </trkpt>
      <trkpt lat="44.10768" lon="6.31796">
        <ele>1090</ele>
        <time>2011-08-18T09:20:00Z</time>
      </trkpt>
      <trkpt lat="44.10784" lon="6.31811">
        <ele>1091</ele>
        <time>2011-08-18T09:20:12Z</time>
      </trkpt>
      <trkpt lat="44.10799" lon="6.31836">
        <ele>1097</ele>
        <time>2011-08-18T09:20:27Z</time>
      </trkpt>
      <trkpt lat="44.10802" lon="6.3186">
        <ele>1097</ele>
        <time>2011-08-18T09:20:39Z</time>
      </trkpt>
      <trkpt lat="44.10808" lon="6.31894">
        <ele>1098</ele>
        <time>2011-08-18T09:20:51Z</time>
      </trkpt>
      <trkpt lat="44.10808" lon="6.31901">
        <ele>1098</ele>
        <time>2011-08-18T09:20:54Z</time>
      </trkpt>
      <trkpt lat="44.10815" lon="6.31938">
        <ele>1103</ele>
        <time>2011-08-18T09:21:07Z</time>
      </trkpt>
      <trkpt lat="44.10816" lon="6.31943">
        <ele>1104</ele>
        <time>2011-08-18T09:21:09Z</time>
      </trkpt>
      <trkpt lat="44.1082" lon="6.31947">
        <ele>1104</ele>
        <time>2011-08-18T09:21:12Z</time>
      </trkpt>
      <trkpt lat="44.1082" lon="6.31954">
        <ele>1104</ele>
        <time>2011-08-18T09:21:17Z</time>
      </trkpt>
      <trkpt lat="44.1082" lon="6.31983">
        <ele>1105</ele>
        <time>2011-08-18T09:21:28Z</time>
      </trkpt>
      <trkpt lat="44.10823" lon="6.32014">
        <ele>1109</ele>
        <time>2011-08-18T09:21:38Z</time>
      </trkpt>
      <trkpt lat="44.10827" lon="6.32044">
        <ele>1112</ele>
        <time>2011-08-18T09:21:48Z</time>
      </trkpt>
      <trkpt lat="44.10828" lon="6.32071">
        <ele>1112</ele>
        <time>2011-08-18T09:21:58Z</time>
      </trkpt>
      <trkpt lat="44.10829" lon="6.32079">
        <ele>1111</ele>
        <time>2011-08-18T09:22:01Z</time>
      </trkpt>
      <trkpt lat="44.10835" lon="6.32094">
        <ele>1111</ele>
        <time>2011-08-18T09:22:07Z</time>
      </trkpt>
      <trkpt lat="44.1084" lon="6.32098">
        <ele>1112</ele>
        <time>2011-08-18T09:22:13Z</time>
      </trkpt>
      <trkpt lat="44.10845" lon="6.32104">
        <ele>1112</ele>
        <time>2011-08-18T09:22:24Z</time>
      </trkpt>
      <trkpt lat="44.10866" lon="6.32111">
        <ele>1112</ele>
        <time>2011-08-18T09:22:43Z</time>
      </trkpt>
      <trkpt lat="44.10868" lon="6.32111">
        <ele>1112</ele>
        <time>2011-08-18T09:22:44Z</time>
      </trkpt>
      <trkpt lat="44.10895" lon="6.32086">
        <ele>1109</ele>
        <time>2011-08-18T09:22:58Z</time>
      </trkpt>
      <trkpt lat="44.10917" lon="6.32059">
        <ele>1098</ele>
        <time>2011-08-18T09:23:07Z</time>
      </trkpt>
      <trkpt lat="44.10931" lon="6.32064">
        <ele>1098</ele>
        <time>2011-08-18T09:23:11Z</time>
      </trkpt>
      <trkpt lat="44.10942" lon="6.32077">
        <ele>1098</ele>
        <time>2011-08-18T09:23:14Z</time>
      </trkpt>
      <trkpt lat="44.10965" lon="6.32098">
        <ele>1103</ele>
        <time>2011-08-18T09:23:19Z</time>
      </trkpt>
      <trkpt lat="44.11017" lon="6.3212">
        <ele>1093</ele>
        <time>2011-08-18T09:23:30Z</time>
      </trkpt>
      <trkpt lat="44.1104" lon="6.3211">
        <ele>1091</ele>
        <time>2011-08-18T09:23:36Z</time>
      </trkpt>
      <trkpt lat="44.11052" lon="6.32104">
        <ele>1089</ele>
        <time>2011-08-18T09:23:39Z</time>
      </trkpt>
      <trkpt lat="44.11063" lon="6.32121">
        <ele>1088</ele>
        <time>2011-08-18T09:23:45Z</time>
      </trkpt>
      <trkpt lat="44.11058" lon="6.32156">
        <ele>1088</ele>
        <time>2011-08-18T09:23:57Z</time>
      </trkpt>
      <trkpt lat="44.11057" lon="6.32189">
        <ele>1090</ele>
        <time>2011-08-18T09:24:06Z</time>
      </trkpt>
      <trkpt lat="44.11057" lon="6.32196">
        <ele>1090</ele>
        <time>2011-08-18T09:24:07Z</time>
      </trkpt>
      <trkpt lat="44.11056" lon="6.32234">
        <ele>1090</ele>
        <time>2011-08-18T09:24:13Z</time>
      </trkpt>
      <trkpt lat="44.1105" lon="6.32247">
        <ele>1091</ele>
        <time>2011-08-18T09:24:16Z</time>
      </trkpt>
      <trkpt lat="44.11067" lon="6.3227">
        <ele>1090</ele>
        <time>2011-08-18T09:24:26Z</time>
      </trkpt>
      <trkpt lat="44.11076" lon="6.32288">
        <ele>1091</ele>
        <time>2011-08-18T09:24:31Z</time>
      </trkpt>
      <trkpt lat="44.11092" lon="6.32289">
        <ele>1080</ele>
        <time>2011-08-18T09:24:36Z</time>
      </trkpt>
      <trkpt lat="44.11109" lon="6.3229">
        <ele>1079</ele>
        <time>2011-08-18T09:24:41Z</time>
      </trkpt>
      <trkpt lat="44.11129" lon="6.32304">
        <ele>1078</ele>
        <time>2011-08-18T09:24:54Z</time>
      </trkpt>
      <trkpt lat="44.11131" lon="6.32304">
        <ele>1078</ele>
        <time>2011-08-18T09:25:12Z</time>
      </trkpt>
    </trkseg>
  </trk>
</gpx>